<?xml version="1.0" encoding="UTF-8" standalone="yes"?>
<gpx
 xmlns="http://www.topografix.com/GPX/1/1"
 creator="OziExplorer Version 3956f - http://www.oziexplorer.com"
 version="1.1"
 xmlns:xsi="http://www.w3.org/2001/XMLSchema-instance"
 xsi:schemaLocation="http://www.topografix.com/GPX/1/1 http://www.topografix.com/GPX/1/1/gpx.xsd">
<metadata>
 <time>2023-11-22T05:44:39Z</time>
 <bounds minlat="31.607579" minlon="34.917336" maxlat="31.677710" maxlon="34.991540"/>
</metadata>
<trk>
 <name>BritaniaAdulam-35km600m</name>
 <desc>BritaniaAdulam-35km600m</desc>
<trkseg>
<trkpt lat="31.6632400" lon="34.9365900">
<ele>294.000000</ele>
<time>2022-05-18T00:00:00.000Z</time>
</trkpt>
<trkpt lat="31.6632300" lon="34.9364300">
<ele>292.000000</ele>
<time>2022-05-18T00:00:03.000Z</time>
</trkpt>
<trkpt lat="31.6633400" lon="34.9364100">
<ele>291.000000</ele>
<time>2022-05-18T00:00:05.000Z</time>
</trkpt>
<trkpt lat="31.6634400" lon="34.9363500">
<ele>291.000000</ele>
<time>2022-05-18T00:00:07.000Z</time>
</trkpt>
<trkpt lat="31.6637100" lon="34.9360300">
<ele>289.000000</ele>
<time>2022-05-18T00:00:15.000Z</time>
</trkpt>
<trkpt lat="31.6639100" lon="34.9358600">
<ele>289.000000</ele>
<time>2022-05-18T00:00:20.000Z</time>
</trkpt>
<trkpt lat="31.6641300" lon="34.9357100">
<ele>290.000000</ele>
<time>2022-05-18T00:00:25.000Z</time>
</trkpt>
<trkpt lat="31.6641800" lon="34.9356500">
<ele>290.000000</ele>
<time>2022-05-18T00:00:26.000Z</time>
</trkpt>
<trkpt lat="31.6642600" lon="34.9355400">
<ele>290.000000</ele>
<time>2022-05-18T00:00:29.000Z</time>
</trkpt>
<trkpt lat="31.6643200" lon="34.9353800">
<ele>290.000000</ele>
<time>2022-05-18T00:00:32.000Z</time>
</trkpt>
<trkpt lat="31.6643300" lon="34.9352500">
<ele>289.000000</ele>
<time>2022-05-18T00:00:34.000Z</time>
</trkpt>
<trkpt lat="31.6644000" lon="34.9347100">
<ele>288.000000</ele>
<time>2022-05-18T00:00:43.000Z</time>
</trkpt>
<trkpt lat="31.6645000" lon="34.9343600">
<ele>289.000000</ele>
<time>2022-05-18T00:00:50.000Z</time>
</trkpt>
<trkpt lat="31.6645500" lon="34.9342100">
<ele>290.000000</ele>
<time>2022-05-18T00:00:52.000Z</time>
</trkpt>
<trkpt lat="31.6647100" lon="34.9338900">
<ele>291.000000</ele>
<time>2022-05-18T00:00:59.000Z</time>
</trkpt>
<trkpt lat="31.6649400" lon="34.9334800">
<ele>289.000000</ele>
<time>2022-05-18T00:01:07.000Z</time>
</trkpt>
<trkpt lat="31.6650800" lon="34.9331900">
<ele>288.000000</ele>
<time>2022-05-18T00:01:13.000Z</time>
</trkpt>
<trkpt lat="31.6654000" lon="34.9324100">
<ele>283.000000</ele>
<time>2022-05-18T00:01:28.000Z</time>
</trkpt>
<trkpt lat="31.6654700" lon="34.9322700">
<ele>283.000000</ele>
<time>2022-05-18T00:01:30.000Z</time>
</trkpt>
<trkpt lat="31.6655300" lon="34.9322000">
<ele>282.000000</ele>
<time>2022-05-18T00:01:32.000Z</time>
</trkpt>
<trkpt lat="31.6656300" lon="34.9321000">
<ele>282.000000</ele>
<time>2022-05-18T00:01:35.000Z</time>
</trkpt>
<trkpt lat="31.6658600" lon="34.9319800">
<ele>281.000000</ele>
<time>2022-05-18T00:01:40.000Z</time>
</trkpt>
<trkpt lat="31.6661200" lon="34.9319400">
<ele>280.000000</ele>
<time>2022-05-18T00:01:45.000Z</time>
</trkpt>
<trkpt lat="31.6662600" lon="34.9319500">
<ele>280.000000</ele>
<time>2022-05-18T00:01:48.000Z</time>
</trkpt>
<trkpt lat="31.6665000" lon="34.9320000">
<ele>279.000000</ele>
<time>2022-05-18T00:01:53.000Z</time>
</trkpt>
<trkpt lat="31.6666400" lon="34.9320800">
<ele>279.000000</ele>
<time>2022-05-18T00:01:56.000Z</time>
</trkpt>
<trkpt lat="31.6668300" lon="34.9322800">
<ele>279.000000</ele>
<time>2022-05-18T00:02:01.000Z</time>
</trkpt>
<trkpt lat="31.6672700" lon="34.9330100">
<ele>281.000000</ele>
<time>2022-05-18T00:02:16.000Z</time>
</trkpt>
<trkpt lat="31.6673300" lon="34.9330900">
<ele>281.000000</ele>
<time>2022-05-18T00:02:18.000Z</time>
</trkpt>
<trkpt lat="31.6675100" lon="34.9332800">
<ele>281.000000</ele>
<time>2022-05-18T00:02:23.000Z</time>
</trkpt>
<trkpt lat="31.6677100" lon="34.9333800">
<ele>280.000000</ele>
<time>2022-05-18T00:02:27.000Z</time>
</trkpt>
<trkpt lat="31.6681500" lon="34.9325800">
<ele>276.000000</ele>
<time>2022-05-18T00:02:43.000Z</time>
</trkpt>
<trkpt lat="31.6680400" lon="34.9324700">
<ele>276.000000</ele>
<time>2022-05-18T00:02:46.000Z</time>
</trkpt>
<trkpt lat="31.6681000" lon="34.9323500">
<ele>277.000000</ele>
<time>2022-05-18T00:02:49.000Z</time>
</trkpt>
<trkpt lat="31.6682200" lon="34.9323700">
<ele>278.000000</ele>
<time>2022-05-18T00:02:51.000Z</time>
</trkpt>
<trkpt lat="31.6684500" lon="34.9326500">
<ele>277.000000</ele>
<time>2022-05-18T00:02:58.000Z</time>
</trkpt>
<trkpt lat="31.6689000" lon="34.9330300">
<ele>275.000000</ele>
<time>2022-05-18T00:03:09.000Z</time>
</trkpt>
<trkpt lat="31.6691000" lon="34.9330700">
<ele>275.000000</ele>
<time>2022-05-18T00:03:13.000Z</time>
</trkpt>
<trkpt lat="31.6694900" lon="34.9327800">
<ele>281.000000</ele>
<time>2022-05-18T00:03:22.000Z</time>
</trkpt>
<trkpt lat="31.6699100" lon="34.9327400">
<ele>284.000000</ele>
<time>2022-05-18T00:03:31.000Z</time>
</trkpt>
<trkpt lat="31.6700939" lon="34.9327575">
<ele>284.000000</ele>
<time>2022-05-18T00:03:34.000Z</time>
</trkpt>
<trkpt lat="31.6703300" lon="34.9327800">
<ele>284.000000</ele>
<time>2022-05-18T00:03:39.000Z</time>
</trkpt>
<trkpt lat="31.6709600" lon="34.9335200">
<ele>280.000000</ele>
<time>2022-05-18T00:03:57.000Z</time>
</trkpt>
<trkpt lat="31.6710200" lon="34.9336000">
<ele>280.000000</ele>
<time>2022-05-18T00:03:59.000Z</time>
</trkpt>
<trkpt lat="31.6715000" lon="34.9340000">
<ele>279.000000</ele>
<time>2022-05-18T00:04:11.000Z</time>
</trkpt>
<trkpt lat="31.6718200" lon="34.9342100">
<ele>278.000000</ele>
<time>2022-05-18T00:04:18.000Z</time>
</trkpt>
<trkpt lat="31.6719600" lon="34.9342900">
<ele>278.000000</ele>
<time>2022-05-18T00:04:21.000Z</time>
</trkpt>
<trkpt lat="31.6721700" lon="34.9343300">
<ele>278.000000</ele>
<time>2022-05-18T00:04:25.000Z</time>
</trkpt>
<trkpt lat="31.6725500" lon="34.9343200">
<ele>281.000000</ele>
<time>2022-05-18T00:04:33.000Z</time>
</trkpt>
<trkpt lat="31.6726097" lon="34.9343051">
<ele>281.000000</ele>
<time>2022-05-18T00:04:34.000Z</time>
</trkpt>
<trkpt lat="31.6726300" lon="34.9343000">
<ele>282.000000</ele>
<time>2022-05-18T00:04:34.000Z</time>
</trkpt>
<trkpt lat="31.6727400" lon="34.9342100">
<ele>283.000000</ele>
<time>2022-05-18T00:04:37.000Z</time>
</trkpt>
<trkpt lat="31.6727900" lon="34.9341100">
<ele>284.000000</ele>
<time>2022-05-18T00:04:39.000Z</time>
</trkpt>
<trkpt lat="31.6731700" lon="34.9337800">
<ele>290.000000</ele>
<time>2022-05-18T00:04:49.000Z</time>
</trkpt>
<trkpt lat="31.6738100" lon="34.9330900">
<ele>296.000000</ele>
<time>2022-05-18T00:05:06.000Z</time>
</trkpt>
<trkpt lat="31.6742300" lon="34.9326300">
<ele>296.000000</ele>
<time>2022-05-18T00:05:18.000Z</time>
</trkpt>
<trkpt lat="31.6746000" lon="34.9321700">
<ele>300.000000</ele>
<time>2022-05-18T00:05:28.000Z</time>
</trkpt>
<trkpt lat="31.6748300" lon="34.9319100">
<ele>301.000000</ele>
<time>2022-05-18T00:05:35.000Z</time>
</trkpt>
<trkpt lat="31.6750300" lon="34.9315700">
<ele>302.000000</ele>
<time>2022-05-18T00:05:42.000Z</time>
</trkpt>
<trkpt lat="31.6750300" lon="34.9313700">
<ele>304.000000</ele>
<time>2022-05-18T00:05:45.000Z</time>
</trkpt>
<trkpt lat="31.6751200" lon="34.9309900">
<ele>307.000000</ele>
<time>2022-05-18T00:05:52.000Z</time>
</trkpt>
<trkpt lat="31.6753400" lon="34.9308000">
<ele>307.000000</ele>
<time>2022-05-18T00:05:57.000Z</time>
</trkpt>
<trkpt lat="31.6756600" lon="34.9306400">
<ele>307.000000</ele>
<time>2022-05-18T00:06:04.000Z</time>
</trkpt>
<trkpt lat="31.6759500" lon="34.9304300">
<ele>309.000000</ele>
<time>2022-05-18T00:06:11.000Z</time>
</trkpt>
<trkpt lat="31.6762400" lon="34.9304700">
<ele>310.000000</ele>
<time>2022-05-18T00:06:17.000Z</time>
</trkpt>
<trkpt lat="31.6765400" lon="34.9304800">
<ele>311.000000</ele>
<time>2022-05-18T00:06:23.000Z</time>
</trkpt>
<trkpt lat="31.6768700" lon="34.9304500">
<ele>312.999969</ele>
<time>2022-05-18T00:06:30.000Z</time>
</trkpt>
<trkpt lat="31.6771100" lon="34.9304000">
<ele>315.000000</ele>
<time>2022-05-18T00:06:35.000Z</time>
</trkpt>
<trkpt lat="31.6773100" lon="34.9304500">
<ele>316.000000</ele>
<time>2022-05-18T00:06:39.000Z</time>
</trkpt>
<trkpt lat="31.6774900" lon="34.9306200">
<ele>316.000000</ele>
<time>2022-05-18T00:06:43.000Z</time>
</trkpt>
<trkpt lat="31.6776000" lon="34.9306100">
<ele>316.000000</ele>
<time>2022-05-18T00:06:45.000Z</time>
</trkpt>
<trkpt lat="31.6776100" lon="34.9301700">
<ele>319.000000</ele>
<time>2022-05-18T00:06:53.000Z</time>
</trkpt>
<trkpt lat="31.6775700" lon="34.9298500">
<ele>321.000031</ele>
<time>2022-05-18T00:06:59.000Z</time>
</trkpt>
<trkpt lat="31.6776028" lon="34.9295259">
<ele>325.000000</ele>
<time>2022-05-18T00:07:04.000Z</time>
</trkpt>
<trkpt lat="31.6776600" lon="34.9289600">
<ele>331.000000</ele>
<time>2022-05-18T00:07:14.000Z</time>
</trkpt>
<trkpt lat="31.6776200" lon="34.9282200">
<ele>335.000031</ele>
<time>2022-05-18T00:07:26.000Z</time>
</trkpt>
<trkpt lat="31.6776200" lon="34.9278900">
<ele>333.000000</ele>
<time>2022-05-18T00:07:32.000Z</time>
</trkpt>
<trkpt lat="31.6776700" lon="34.9276100">
<ele>332.000000</ele>
<time>2022-05-18T00:07:37.000Z</time>
</trkpt>
<trkpt lat="31.6777100" lon="34.9276200">
<ele>332.000000</ele>
<time>2022-05-18T00:07:38.000Z</time>
</trkpt>
<trkpt lat="31.6777100" lon="34.9276000">
<ele>332.000000</ele>
<time>2022-05-18T00:07:38.000Z</time>
</trkpt>
<trkpt lat="31.6770900" lon="34.9273800">
<ele>332.000000</ele>
<time>2022-05-18T00:07:51.000Z</time>
</trkpt>
<trkpt lat="31.6768500" lon="34.9273200">
<ele>332.000000</ele>
<time>2022-05-18T00:07:56.000Z</time>
</trkpt>
<trkpt lat="31.6765300" lon="34.9271500">
<ele>333.000000</ele>
<time>2022-05-18T00:08:03.000Z</time>
</trkpt>
<trkpt lat="31.6765200" lon="34.9271500">
<ele>333.000000</ele>
<time>2022-05-18T00:08:03.000Z</time>
</trkpt>
<trkpt lat="31.6762500" lon="34.9270200">
<ele>335.000031</ele>
<time>2022-05-18T00:08:09.000Z</time>
</trkpt>
<trkpt lat="31.6761500" lon="34.9268800">
<ele>335.000031</ele>
<time>2022-05-18T00:08:12.000Z</time>
</trkpt>
<trkpt lat="31.6760000" lon="34.9267000">
<ele>335.000031</ele>
<time>2022-05-18T00:08:16.000Z</time>
</trkpt>
<trkpt lat="31.6758400" lon="34.9266000">
<ele>336.000000</ele>
<time>2022-05-18T00:08:20.000Z</time>
</trkpt>
<trkpt lat="31.6756700" lon="34.9265200">
<ele>336.000000</ele>
<time>2022-05-18T00:08:24.000Z</time>
</trkpt>
<trkpt lat="31.6754900" lon="34.9264700">
<ele>336.000000</ele>
<time>2022-05-18T00:08:27.000Z</time>
</trkpt>
<trkpt lat="31.6754200" lon="34.9264600">
<ele>336.000000</ele>
<time>2022-05-18T00:08:29.000Z</time>
</trkpt>
<trkpt lat="31.6751000" lon="34.9263900">
<ele>336.000000</ele>
<time>2022-05-18T00:08:35.000Z</time>
</trkpt>
<trkpt lat="31.6748900" lon="34.9263600">
<ele>337.000000</ele>
<time>2022-05-18T00:08:40.000Z</time>
</trkpt>
<trkpt lat="31.6746900" lon="34.9262500">
<ele>337.000000</ele>
<time>2022-05-18T00:08:44.000Z</time>
</trkpt>
<trkpt lat="31.6744100" lon="34.9259900">
<ele>335.000031</ele>
<time>2022-05-18T00:08:51.000Z</time>
</trkpt>
<trkpt lat="31.6741900" lon="34.9257000">
<ele>332.000000</ele>
<time>2022-05-18T00:08:58.000Z</time>
</trkpt>
<trkpt lat="31.6740800" lon="34.9255900">
<ele>333.000000</ele>
<time>2022-05-18T00:09:01.000Z</time>
</trkpt>
<trkpt lat="31.6740000" lon="34.9254500">
<ele>332.000000</ele>
<time>2022-05-18T00:09:04.000Z</time>
</trkpt>
<trkpt lat="31.6739700" lon="34.9253700">
<ele>332.000000</ele>
<time>2022-05-18T00:09:05.000Z</time>
</trkpt>
<trkpt lat="31.6739100" lon="34.9248600">
<ele>326.000000</ele>
<time>2022-05-18T00:09:14.000Z</time>
</trkpt>
<trkpt lat="31.6738700" lon="34.9247400">
<ele>325.000000</ele>
<time>2022-05-18T00:09:16.000Z</time>
</trkpt>
<trkpt lat="31.6738100" lon="34.9246300">
<ele>325.000000</ele>
<time>2022-05-18T00:09:18.000Z</time>
</trkpt>
<trkpt lat="31.6737300" lon="34.9245500">
<ele>325.000000</ele>
<time>2022-05-18T00:09:20.000Z</time>
</trkpt>
<trkpt lat="31.6735700" lon="34.9244700">
<ele>325.000000</ele>
<time>2022-05-18T00:09:24.000Z</time>
</trkpt>
<trkpt lat="31.6732344" lon="34.9244448">
<ele>326.999969</ele>
<time>2022-05-18T00:09:31.000Z</time>
</trkpt>
<trkpt lat="31.6731380" lon="34.9244340">
<ele>326.999969</ele>
<time>2022-05-18T00:09:33.000Z</time>
</trkpt>
<trkpt lat="31.6720250" lon="34.9244810">
<ele>328.000000</ele>
<time>2022-05-18T00:09:55.000Z</time>
</trkpt>
<trkpt lat="31.6719380" lon="34.9245220">
<ele>328.000000</ele>
<time>2022-05-18T00:09:57.000Z</time>
</trkpt>
<trkpt lat="31.6718070" lon="34.9245840">
<ele>329.000000</ele>
<time>2022-05-18T00:10:00.000Z</time>
</trkpt>
<trkpt lat="31.6716060" lon="34.9247800">
<ele>330.000000</ele>
<time>2022-05-18T00:10:05.000Z</time>
</trkpt>
<trkpt lat="31.6715690" lon="34.9251190">
<ele>333.000000</ele>
<time>2022-05-18T00:10:11.000Z</time>
</trkpt>
<trkpt lat="31.6715930" lon="34.9253730">
<ele>334.000000</ele>
<time>2022-05-18T00:10:15.000Z</time>
</trkpt>
<trkpt lat="31.6717460" lon="34.9257510">
<ele>337.999969</ele>
<time>2022-05-18T00:10:22.000Z</time>
</trkpt>
<trkpt lat="31.6717942" lon="34.9258279">
<ele>340.000000</ele>
<time>2022-05-18T00:10:24.000Z</time>
</trkpt>
<trkpt lat="31.6718740" lon="34.9258730">
<ele>342.000000</ele>
<time>2022-05-18T00:10:26.000Z</time>
</trkpt>
<trkpt lat="31.6718560" lon="34.9262690">
<ele>344.000000</ele>
<time>2022-05-18T00:10:32.000Z</time>
</trkpt>
<trkpt lat="31.6717860" lon="34.9264480">
<ele>343.000000</ele>
<time>2022-05-18T00:10:36.000Z</time>
</trkpt>
<trkpt lat="31.6716940" lon="34.9265090">
<ele>342.000000</ele>
<time>2022-05-18T00:10:38.000Z</time>
</trkpt>
<trkpt lat="31.6716680" lon="34.9265260">
<ele>341.000000</ele>
<time>2022-05-18T00:10:38.000Z</time>
</trkpt>
<trkpt lat="31.6715790" lon="34.9264680">
<ele>340.000000</ele>
<time>2022-05-18T00:10:40.000Z</time>
</trkpt>
<trkpt lat="31.6713420" lon="34.9264110">
<ele>337.999969</ele>
<time>2022-05-18T00:10:45.000Z</time>
</trkpt>
<trkpt lat="31.6711160" lon="34.9261910">
<ele>333.000000</ele>
<time>2022-05-18T00:10:51.000Z</time>
</trkpt>
<trkpt lat="31.6709941" lon="34.9260942">
<ele>330.000000</ele>
<time>2022-05-18T00:10:54.000Z</time>
</trkpt>
<trkpt lat="31.6708800" lon="34.9260000">
<ele>326.999969</ele>
<time>2022-05-18T00:10:57.000Z</time>
</trkpt>
<trkpt lat="31.6700300" lon="34.9258300">
<ele>320.000000</ele>
<time>2022-05-18T00:11:14.000Z</time>
</trkpt>
<trkpt lat="31.6697900" lon="34.9258900">
<ele>322.000000</ele>
<time>2022-05-18T00:11:19.000Z</time>
</trkpt>
<trkpt lat="31.6693200" lon="34.9259900">
<ele>323.999969</ele>
<time>2022-05-18T00:11:29.000Z</time>
</trkpt>
<trkpt lat="31.6690300" lon="34.9262200">
<ele>323.999969</ele>
<time>2022-05-18T00:11:36.000Z</time>
</trkpt>
<trkpt lat="31.6690400" lon="34.9260600">
<ele>325.000000</ele>
<time>2022-05-18T00:11:38.000Z</time>
</trkpt>
<trkpt lat="31.6687200" lon="34.9238400">
<ele>334.000000</ele>
<time>2022-05-18T00:12:17.000Z</time>
</trkpt>
<trkpt lat="31.6686500" lon="34.9232400">
<ele>337.999969</ele>
<time>2022-05-18T00:12:27.000Z</time>
</trkpt>
<trkpt lat="31.6686400" lon="34.9220200">
<ele>340.000000</ele>
<time>2022-05-18T00:12:48.000Z</time>
</trkpt>
<trkpt lat="31.6686200" lon="34.9218500">
<ele>340.000000</ele>
<time>2022-05-18T00:12:51.000Z</time>
</trkpt>
<trkpt lat="31.6685600" lon="34.9216100">
<ele>341.000000</ele>
<time>2022-05-18T00:12:55.000Z</time>
</trkpt>
<trkpt lat="31.6684500" lon="34.9213900">
<ele>341.000000</ele>
<time>2022-05-18T00:13:00.000Z</time>
</trkpt>
<trkpt lat="31.6682940" lon="34.9211670">
<ele>342.000000</ele>
<time>2022-05-18T00:13:04.000Z</time>
</trkpt>
<trkpt lat="31.6681860" lon="34.9210540">
<ele>340.000000</ele>
<time>2022-05-18T00:13:07.000Z</time>
</trkpt>
<trkpt lat="31.6681530" lon="34.9210351">
<ele>340.000000</ele>
<time>2022-05-18T00:13:08.000Z</time>
</trkpt>
<trkpt lat="31.6680450" lon="34.9209770">
<ele>339.000000</ele>
<time>2022-05-18T00:13:10.000Z</time>
</trkpt>
<trkpt lat="31.6679800" lon="34.9209600">
<ele>339.000000</ele>
<time>2022-05-18T00:13:12.000Z</time>
</trkpt>
<trkpt lat="31.6679760" lon="34.9209570">
<ele>339.000000</ele>
<time>2022-05-18T00:13:12.000Z</time>
</trkpt>
<trkpt lat="31.6679800" lon="34.9209600">
<ele>339.000000</ele>
<time>2022-05-18T00:13:12.000Z</time>
</trkpt>
<trkpt lat="31.6678690" lon="34.9210090">
<ele>340.000000</ele>
<time>2022-05-18T00:13:14.000Z</time>
</trkpt>
<trkpt lat="31.6678059" lon="34.9211080">
<ele>342.000000</ele>
<time>2022-05-18T00:13:16.000Z</time>
</trkpt>
<trkpt lat="31.6677247" lon="34.9212353">
<ele>344.000000</ele>
<time>2022-05-18T00:13:19.000Z</time>
</trkpt>
<trkpt lat="31.6676700" lon="34.9213200">
<ele>346.000031</ele>
<time>2022-05-18T00:13:21.000Z</time>
</trkpt>
<trkpt lat="31.6675600" lon="34.9215400">
<ele>350.000000</ele>
<time>2022-05-18T00:13:25.000Z</time>
</trkpt>
<trkpt lat="31.6674300" lon="34.9217200">
<ele>353.000000</ele>
<time>2022-05-18T00:13:29.000Z</time>
</trkpt>
<trkpt lat="31.6672600" lon="34.9218100">
<ele>355.000000</ele>
<time>2022-05-18T00:13:33.000Z</time>
</trkpt>
<trkpt lat="31.6670800" lon="34.9218300">
<ele>356.000000</ele>
<time>2022-05-18T00:13:37.000Z</time>
</trkpt>
<trkpt lat="31.6669400" lon="34.9217800">
<ele>356.000000</ele>
<time>2022-05-18T00:13:40.000Z</time>
</trkpt>
<trkpt lat="31.6669200" lon="34.9217800">
<ele>356.000000</ele>
<time>2022-05-18T00:13:40.000Z</time>
</trkpt>
<trkpt lat="31.6667900" lon="34.9216500">
<ele>355.000000</ele>
<time>2022-05-18T00:13:43.000Z</time>
</trkpt>
<trkpt lat="31.6664600" lon="34.9213500">
<ele>349.000031</ele>
<time>2022-05-18T00:13:52.000Z</time>
</trkpt>
<trkpt lat="31.6663300" lon="34.9212200">
<ele>347.000000</ele>
<time>2022-05-18T00:13:55.000Z</time>
</trkpt>
<trkpt lat="31.6660300" lon="34.9211000">
<ele>347.000000</ele>
<time>2022-05-18T00:14:02.000Z</time>
</trkpt>
<trkpt lat="31.6654500" lon="34.9209900">
<ele>345.000000</ele>
<time>2022-05-18T00:14:13.000Z</time>
</trkpt>
<trkpt lat="31.6653400" lon="34.9209400">
<ele>344.000000</ele>
<time>2022-05-18T00:14:16.000Z</time>
</trkpt>
<trkpt lat="31.6653300" lon="34.9209400">
<ele>344.000000</ele>
<time>2022-05-18T00:14:16.000Z</time>
</trkpt>
<trkpt lat="31.6652200" lon="34.9209000">
<ele>344.000000</ele>
<time>2022-05-18T00:14:18.000Z</time>
</trkpt>
<trkpt lat="31.6649000" lon="34.9208300">
<ele>341.000000</ele>
<time>2022-05-18T00:14:25.000Z</time>
</trkpt>
<trkpt lat="31.6647800" lon="34.9208600">
<ele>340.000000</ele>
<time>2022-05-18T00:14:27.000Z</time>
</trkpt>
<trkpt lat="31.6647100" lon="34.9209100">
<ele>339.000000</ele>
<time>2022-05-18T00:14:29.000Z</time>
</trkpt>
<trkpt lat="31.6646600" lon="34.9209900">
<ele>339.000000</ele>
<time>2022-05-18T00:14:31.000Z</time>
</trkpt>
<trkpt lat="31.6646400" lon="34.9210800">
<ele>339.000000</ele>
<time>2022-05-18T00:14:32.000Z</time>
</trkpt>
<trkpt lat="31.6646500" lon="34.9211800">
<ele>341.000000</ele>
<time>2022-05-18T00:14:34.000Z</time>
</trkpt>
<trkpt lat="31.6649200" lon="34.9218900">
<ele>353.000000</ele>
<time>2022-05-18T00:14:47.000Z</time>
</trkpt>
<trkpt lat="31.6648600" lon="34.9221600">
<ele>354.000000</ele>
<time>2022-05-18T00:14:52.000Z</time>
</trkpt>
<trkpt lat="31.6646700" lon="34.9222000">
<ele>351.999969</ele>
<time>2022-05-18T00:14:56.000Z</time>
</trkpt>
<trkpt lat="31.6641400" lon="34.9221600">
<ele>345.000000</ele>
<time>2022-05-18T00:15:06.000Z</time>
</trkpt>
<trkpt lat="31.6639700" lon="34.9221400">
<ele>344.000000</ele>
<time>2022-05-18T00:15:10.000Z</time>
</trkpt>
<trkpt lat="31.6638700" lon="34.9221000">
<ele>343.000000</ele>
<time>2022-05-18T00:15:12.000Z</time>
</trkpt>
<trkpt lat="31.6636100" lon="34.9219600">
<ele>339.000000</ele>
<time>2022-05-18T00:15:18.000Z</time>
</trkpt>
<trkpt lat="31.6635100" lon="34.9219400">
<ele>337.999969</ele>
<time>2022-05-18T00:15:20.000Z</time>
</trkpt>
<trkpt lat="31.6631900" lon="34.9220200">
<ele>339.000000</ele>
<time>2022-05-18T00:15:26.000Z</time>
</trkpt>
<trkpt lat="31.6630000" lon="34.9221000">
<ele>340.000000</ele>
<time>2022-05-18T00:15:30.000Z</time>
</trkpt>
<trkpt lat="31.6628500" lon="34.9218600">
<ele>339.000000</ele>
<time>2022-05-18T00:15:35.000Z</time>
</trkpt>
<trkpt lat="31.6627400" lon="34.9213500">
<ele>335.000031</ele>
<time>2022-05-18T00:15:44.000Z</time>
</trkpt>
<trkpt lat="31.6624700" lon="34.9207700">
<ele>336.000000</ele>
<time>2022-05-18T00:15:56.000Z</time>
</trkpt>
<trkpt lat="31.6624700" lon="34.9207600">
<ele>336.000000</ele>
<time>2022-05-18T00:15:56.000Z</time>
</trkpt>
<trkpt lat="31.6623300" lon="34.9204800">
<ele>337.000000</ele>
<time>2022-05-18T00:16:01.000Z</time>
</trkpt>
<trkpt lat="31.6622500" lon="34.9201900">
<ele>336.000000</ele>
<time>2022-05-18T00:16:07.000Z</time>
</trkpt>
<trkpt lat="31.6620200" lon="34.9198300">
<ele>337.999969</ele>
<time>2022-05-18T00:16:14.000Z</time>
</trkpt>
<trkpt lat="31.6619600" lon="34.9197000">
<ele>337.000000</ele>
<time>2022-05-18T00:16:17.000Z</time>
</trkpt>
<trkpt lat="31.6618800" lon="34.9196400">
<ele>337.999969</ele>
<time>2022-05-18T00:16:19.000Z</time>
</trkpt>
<trkpt lat="31.6616300" lon="34.9195300">
<ele>340.000000</ele>
<time>2022-05-18T00:16:24.000Z</time>
</trkpt>
<trkpt lat="31.6616200" lon="34.9195300">
<ele>340.000000</ele>
<time>2022-05-18T00:16:24.000Z</time>
</trkpt>
<trkpt lat="31.6615700" lon="34.9195100">
<ele>339.000000</ele>
<time>2022-05-18T00:16:25.000Z</time>
</trkpt>
<trkpt lat="31.6614700" lon="34.9195100">
<ele>339.000000</ele>
<time>2022-05-18T00:16:27.000Z</time>
</trkpt>
<trkpt lat="31.6614000" lon="34.9195900">
<ele>339.000000</ele>
<time>2022-05-18T00:16:29.000Z</time>
</trkpt>
<trkpt lat="31.6614800" lon="34.9198400">
<ele>344.000000</ele>
<time>2022-05-18T00:16:34.000Z</time>
</trkpt>
<trkpt lat="31.6615100" lon="34.9201100">
<ele>348.000000</ele>
<time>2022-05-18T00:16:38.000Z</time>
</trkpt>
<trkpt lat="31.6615400" lon="34.9206700">
<ele>356.000000</ele>
<time>2022-05-18T00:16:48.000Z</time>
</trkpt>
<trkpt lat="31.6614200" lon="34.9209400">
<ele>359.000000</ele>
<time>2022-05-18T00:16:53.000Z</time>
</trkpt>
<trkpt lat="31.6613000" lon="34.9211200">
<ele>362.000000</ele>
<time>2022-05-18T00:16:57.000Z</time>
</trkpt>
<trkpt lat="31.6610700" lon="34.9211700">
<ele>365.000000</ele>
<time>2022-05-18T00:17:02.000Z</time>
</trkpt>
<trkpt lat="31.6608200" lon="34.9212000">
<ele>368.000000</ele>
<time>2022-05-18T00:17:07.000Z</time>
</trkpt>
<trkpt lat="31.6601500" lon="34.9212600">
<ele>374.000031</ele>
<time>2022-05-18T00:17:20.000Z</time>
</trkpt>
<trkpt lat="31.6597300" lon="34.9210800">
<ele>373.000000</ele>
<time>2022-05-18T00:17:29.000Z</time>
</trkpt>
<trkpt lat="31.6593000" lon="34.9209400">
<ele>374.000031</ele>
<time>2022-05-18T00:17:38.000Z</time>
</trkpt>
<trkpt lat="31.6591300" lon="34.9209800">
<ele>375.000000</ele>
<time>2022-05-18T00:17:42.000Z</time>
</trkpt>
<trkpt lat="31.6590300" lon="34.9210800">
<ele>375.000000</ele>
<time>2022-05-18T00:17:44.000Z</time>
</trkpt>
<trkpt lat="31.6589300" lon="34.9212200">
<ele>375.000000</ele>
<time>2022-05-18T00:17:47.000Z</time>
</trkpt>
<trkpt lat="31.6587000" lon="34.9217500">
<ele>376.000000</ele>
<time>2022-05-18T00:17:58.000Z</time>
</trkpt>
<trkpt lat="31.6580400" lon="34.9224400">
<ele>366.000000</ele>
<time>2022-05-18T00:18:15.000Z</time>
</trkpt>
<trkpt lat="31.6578500" lon="34.9226600">
<ele>362.000000</ele>
<time>2022-05-18T00:18:21.000Z</time>
</trkpt>
<trkpt lat="31.6577900" lon="34.9227100">
<ele>360.000031</ele>
<time>2022-05-18T00:18:22.000Z</time>
</trkpt>
<trkpt lat="31.6577200" lon="34.9227300">
<ele>359.000000</ele>
<time>2022-05-18T00:18:23.000Z</time>
</trkpt>
<trkpt lat="31.6574900" lon="34.9226300">
<ele>357.000000</ele>
<time>2022-05-18T00:18:28.000Z</time>
</trkpt>
<trkpt lat="31.6573200" lon="34.9226400">
<ele>358.000000</ele>
<time>2022-05-18T00:18:32.000Z</time>
</trkpt>
<trkpt lat="31.6570800" lon="34.9226200">
<ele>358.000000</ele>
<time>2022-05-18T00:18:37.000Z</time>
</trkpt>
<trkpt lat="31.6567900" lon="34.9225200">
<ele>360.000031</ele>
<time>2022-05-18T00:18:43.000Z</time>
</trkpt>
<trkpt lat="31.6567100" lon="34.9224700">
<ele>360.000031</ele>
<time>2022-05-18T00:18:45.000Z</time>
</trkpt>
<trkpt lat="31.6567100" lon="34.9224600">
<ele>359.000000</ele>
<time>2022-05-18T00:18:45.000Z</time>
</trkpt>
<trkpt lat="31.6564300" lon="34.9222900">
<ele>359.000000</ele>
<time>2022-05-18T00:18:51.000Z</time>
</trkpt>
<trkpt lat="31.6562400" lon="34.9222000">
<ele>360.000031</ele>
<time>2022-05-18T00:18:55.000Z</time>
</trkpt>
<trkpt lat="31.6549869" lon="34.9218115">
<ele>370.000000</ele>
<time>2022-05-18T00:19:21.000Z</time>
</trkpt>
<trkpt lat="31.6544270" lon="34.9215560">
<ele>376.999969</ele>
<time>2022-05-18T00:19:33.000Z</time>
</trkpt>
<trkpt lat="31.6543760" lon="34.9215580">
<ele>376.999969</ele>
<time>2022-05-18T00:19:34.000Z</time>
</trkpt>
<trkpt lat="31.6543100" lon="34.9215980">
<ele>378.000000</ele>
<time>2022-05-18T00:19:36.000Z</time>
</trkpt>
<trkpt lat="31.6541300" lon="34.9217790">
<ele>379.000000</ele>
<time>2022-05-18T00:19:40.000Z</time>
</trkpt>
<trkpt lat="31.6540460" lon="34.9218120">
<ele>378.000000</ele>
<time>2022-05-18T00:19:42.000Z</time>
</trkpt>
<trkpt lat="31.6537890" lon="34.9218430">
<ele>376.999969</ele>
<time>2022-05-18T00:19:47.000Z</time>
</trkpt>
<trkpt lat="31.6537120" lon="34.9218220">
<ele>376.000000</ele>
<time>2022-05-18T00:19:49.000Z</time>
</trkpt>
<trkpt lat="31.6533400" lon="34.9215390">
<ele>376.000000</ele>
<time>2022-05-18T00:19:58.000Z</time>
</trkpt>
<trkpt lat="31.6532460" lon="34.9214460">
<ele>374.000031</ele>
<time>2022-05-18T00:20:00.000Z</time>
</trkpt>
<trkpt lat="31.6532240" lon="34.9213990">
<ele>374.000031</ele>
<time>2022-05-18T00:20:01.000Z</time>
</trkpt>
<trkpt lat="31.6531660" lon="34.9212750">
<ele>373.000000</ele>
<time>2022-05-18T00:20:04.000Z</time>
</trkpt>
<trkpt lat="31.6531200" lon="34.9210320">
<ele>372.000000</ele>
<time>2022-05-18T00:20:08.000Z</time>
</trkpt>
<trkpt lat="31.6531090" lon="34.9207690">
<ele>372.000000</ele>
<time>2022-05-18T00:20:12.000Z</time>
</trkpt>
<trkpt lat="31.6531170" lon="34.9206660">
<ele>372.000000</ele>
<time>2022-05-18T00:20:14.000Z</time>
</trkpt>
<trkpt lat="31.6532640" lon="34.9200090">
<ele>375.000000</ele>
<time>2022-05-18T00:20:26.000Z</time>
</trkpt>
<trkpt lat="31.6532680" lon="34.9198660">
<ele>376.000000</ele>
<time>2022-05-18T00:20:28.000Z</time>
</trkpt>
<trkpt lat="31.6532480" lon="34.9197650">
<ele>376.000000</ele>
<time>2022-05-18T00:20:30.000Z</time>
</trkpt>
<trkpt lat="31.6531900" lon="34.9196150">
<ele>376.000000</ele>
<time>2022-05-18T00:20:33.000Z</time>
</trkpt>
<trkpt lat="31.6530930" lon="34.9194530">
<ele>376.000000</ele>
<time>2022-05-18T00:20:36.000Z</time>
</trkpt>
<trkpt lat="31.6529220" lon="34.9192700">
<ele>376.000000</ele>
<time>2022-05-18T00:20:41.000Z</time>
</trkpt>
<trkpt lat="31.6527850" lon="34.9191750">
<ele>376.999969</ele>
<time>2022-05-18T00:20:44.000Z</time>
</trkpt>
<trkpt lat="31.6525700" lon="34.9190860">
<ele>376.999969</ele>
<time>2022-05-18T00:20:48.000Z</time>
</trkpt>
<trkpt lat="31.6522380" lon="34.9190760">
<ele>376.999969</ele>
<time>2022-05-18T00:20:55.000Z</time>
</trkpt>
<trkpt lat="31.6519970" lon="34.9191370">
<ele>376.999969</ele>
<time>2022-05-18T00:21:00.000Z</time>
</trkpt>
<trkpt lat="31.6514330" lon="34.9194280">
<ele>375.000000</ele>
<time>2022-05-18T00:21:12.000Z</time>
</trkpt>
<trkpt lat="31.6513040" lon="34.9194600">
<ele>376.000000</ele>
<time>2022-05-18T00:21:15.000Z</time>
</trkpt>
<trkpt lat="31.6509310" lon="34.9195070">
<ele>376.000000</ele>
<time>2022-05-18T00:21:23.000Z</time>
</trkpt>
<trkpt lat="31.6505770" lon="34.9194540">
<ele>375.000000</ele>
<time>2022-05-18T00:21:30.000Z</time>
</trkpt>
<trkpt lat="31.6504300" lon="34.9193840">
<ele>375.000000</ele>
<time>2022-05-18T00:21:33.000Z</time>
</trkpt>
<trkpt lat="31.6502570" lon="34.9192490">
<ele>375.000000</ele>
<time>2022-05-18T00:21:37.000Z</time>
</trkpt>
<trkpt lat="31.6501590" lon="34.9191090">
<ele>375.000000</ele>
<time>2022-05-18T00:21:40.000Z</time>
</trkpt>
<trkpt lat="31.6500700" lon="34.9188600">
<ele>376.000000</ele>
<time>2022-05-18T00:21:45.000Z</time>
</trkpt>
<trkpt lat="31.6499850" lon="34.9185210">
<ele>376.999969</ele>
<time>2022-05-18T00:21:51.000Z</time>
</trkpt>
<trkpt lat="31.6499040" lon="34.9183130">
<ele>378.000000</ele>
<time>2022-05-18T00:21:55.000Z</time>
</trkpt>
<trkpt lat="31.6498350" lon="34.9182060">
<ele>378.000000</ele>
<time>2022-05-18T00:21:57.000Z</time>
</trkpt>
<trkpt lat="31.6496770" lon="34.9180520">
<ele>378.000000</ele>
<time>2022-05-18T00:22:01.000Z</time>
</trkpt>
<trkpt lat="31.6495760" lon="34.9179870">
<ele>378.000000</ele>
<time>2022-05-18T00:22:03.000Z</time>
</trkpt>
<trkpt lat="31.6494650" lon="34.9179600">
<ele>378.000000</ele>
<time>2022-05-18T00:22:06.000Z</time>
</trkpt>
<trkpt lat="31.6492670" lon="34.9179620">
<ele>376.999969</ele>
<time>2022-05-18T00:22:10.000Z</time>
</trkpt>
<trkpt lat="31.6487580" lon="34.9181170">
<ele>378.000000</ele>
<time>2022-05-18T00:22:20.000Z</time>
</trkpt>
<trkpt lat="31.6486420" lon="34.9181690">
<ele>378.000000</ele>
<time>2022-05-18T00:22:23.000Z</time>
</trkpt>
<trkpt lat="31.6480950" lon="34.9184910">
<ele>378.000000</ele>
<time>2022-05-18T00:22:35.000Z</time>
</trkpt>
<trkpt lat="31.6480090" lon="34.9185150">
<ele>376.999969</ele>
<time>2022-05-18T00:22:37.000Z</time>
</trkpt>
<trkpt lat="31.6478560" lon="34.9185230">
<ele>378.000000</ele>
<time>2022-05-18T00:22:40.000Z</time>
</trkpt>
<trkpt lat="31.6477510" lon="34.9185050">
<ele>378.000000</ele>
<time>2022-05-18T00:22:42.000Z</time>
</trkpt>
<trkpt lat="31.6476830" lon="34.9184590">
<ele>378.000000</ele>
<time>2022-05-18T00:22:43.000Z</time>
</trkpt>
<trkpt lat="31.6476360" lon="34.9183980">
<ele>378.000000</ele>
<time>2022-05-18T00:22:45.000Z</time>
</trkpt>
<trkpt lat="31.6475900" lon="34.9182310">
<ele>379.000000</ele>
<time>2022-05-18T00:22:48.000Z</time>
</trkpt>
<trkpt lat="31.6475830" lon="34.9180610">
<ele>379.000000</ele>
<time>2022-05-18T00:22:51.000Z</time>
</trkpt>
<trkpt lat="31.6475250" lon="34.9178290">
<ele>380.000000</ele>
<time>2022-05-18T00:22:55.000Z</time>
</trkpt>
<trkpt lat="31.6474410" lon="34.9177520">
<ele>380.000000</ele>
<time>2022-05-18T00:22:57.000Z</time>
</trkpt>
<trkpt lat="31.6472440" lon="34.9176420">
<ele>379.000000</ele>
<time>2022-05-18T00:23:01.000Z</time>
</trkpt>
<trkpt lat="31.6467960" lon="34.9174250">
<ele>376.999969</ele>
<time>2022-05-18T00:23:11.000Z</time>
</trkpt>
<trkpt lat="31.6466520" lon="34.9173770">
<ele>376.999969</ele>
<time>2022-05-18T00:23:14.000Z</time>
</trkpt>
<trkpt lat="31.6464660" lon="34.9173360">
<ele>378.000000</ele>
<time>2022-05-18T00:23:18.000Z</time>
</trkpt>
<trkpt lat="31.6464010" lon="34.9173870">
<ele>378.000000</ele>
<time>2022-05-18T00:23:19.000Z</time>
</trkpt>
<trkpt lat="31.6464500" lon="34.9175000">
<ele>376.999969</ele>
<time>2022-05-18T00:23:22.000Z</time>
</trkpt>
<trkpt lat="31.6466390" lon="34.9175940">
<ele>375.000000</ele>
<time>2022-05-18T00:23:26.000Z</time>
</trkpt>
<trkpt lat="31.6467380" lon="34.9177110">
<ele>374.000031</ele>
<time>2022-05-18T00:23:29.000Z</time>
</trkpt>
<trkpt lat="31.6467840" lon="34.9178120">
<ele>374.000031</ele>
<time>2022-05-18T00:23:30.000Z</time>
</trkpt>
<trkpt lat="31.6468050" lon="34.9179240">
<ele>373.000000</ele>
<time>2022-05-18T00:23:32.000Z</time>
</trkpt>
<trkpt lat="31.6468010" lon="34.9180300">
<ele>372.000000</ele>
<time>2022-05-18T00:23:34.000Z</time>
</trkpt>
<trkpt lat="31.6467740" lon="34.9181710">
<ele>370.000000</ele>
<time>2022-05-18T00:23:37.000Z</time>
</trkpt>
<trkpt lat="31.6466670" lon="34.9185990">
<ele>366.000000</ele>
<time>2022-05-18T00:23:44.000Z</time>
</trkpt>
<trkpt lat="31.6465540" lon="34.9191850">
<ele>362.999969</ele>
<time>2022-05-18T00:23:55.000Z</time>
</trkpt>
<trkpt lat="31.6465030" lon="34.9193330">
<ele>362.999969</ele>
<time>2022-05-18T00:23:57.000Z</time>
</trkpt>
<trkpt lat="31.6462230" lon="34.9199160">
<ele>360.000031</ele>
<time>2022-05-18T00:24:09.000Z</time>
</trkpt>
<trkpt lat="31.6460450" lon="34.9203510">
<ele>356.000000</ele>
<time>2022-05-18T00:24:17.000Z</time>
</trkpt>
<trkpt lat="31.6458860" lon="34.9206920">
<ele>351.999969</ele>
<time>2022-05-18T00:24:24.000Z</time>
</trkpt>
<trkpt lat="31.6454720" lon="34.9214700">
<ele>348.000000</ele>
<time>2022-05-18T00:24:39.000Z</time>
</trkpt>
<trkpt lat="31.6454020" lon="34.9216590">
<ele>347.000000</ele>
<time>2022-05-18T00:24:43.000Z</time>
</trkpt>
<trkpt lat="31.6452390" lon="34.9222000">
<ele>342.000000</ele>
<time>2022-05-18T00:24:53.000Z</time>
</trkpt>
<trkpt lat="31.6450900" lon="34.9225360">
<ele>337.999969</ele>
<time>2022-05-18T00:24:59.000Z</time>
</trkpt>
<trkpt lat="31.6450320" lon="34.9227290">
<ele>336.000000</ele>
<time>2022-05-18T00:25:02.000Z</time>
</trkpt>
<trkpt lat="31.6449280" lon="34.9232780">
<ele>331.000000</ele>
<time>2022-05-18T00:25:12.000Z</time>
</trkpt>
<trkpt lat="31.6449280" lon="34.9234250">
<ele>330.000000</ele>
<time>2022-05-18T00:25:15.000Z</time>
</trkpt>
<trkpt lat="31.6450520" lon="34.9240660">
<ele>325.000000</ele>
<time>2022-05-18T00:25:26.000Z</time>
</trkpt>
<trkpt lat="31.6451040" lon="34.9241420">
<ele>325.000000</ele>
<time>2022-05-18T00:25:27.000Z</time>
</trkpt>
<trkpt lat="31.6451890" lon="34.9242180">
<ele>325.000000</ele>
<time>2022-05-18T00:25:30.000Z</time>
</trkpt>
<trkpt lat="31.6454260" lon="34.9243650">
<ele>326.000000</ele>
<time>2022-05-18T00:25:35.000Z</time>
</trkpt>
<trkpt lat="31.6456150" lon="34.9245110">
<ele>325.000000</ele>
<time>2022-05-18T00:25:40.000Z</time>
</trkpt>
<trkpt lat="31.6459470" lon="34.9248410">
<ele>322.000000</ele>
<time>2022-05-18T00:25:48.000Z</time>
</trkpt>
<trkpt lat="31.6461230" lon="34.9249540">
<ele>322.000000</ele>
<time>2022-05-18T00:25:52.000Z</time>
</trkpt>
<trkpt lat="31.6461860" lon="34.9250460">
<ele>321.000031</ele>
<time>2022-05-18T00:25:54.000Z</time>
</trkpt>
<trkpt lat="31.6461740" lon="34.9251490">
<ele>321.000031</ele>
<time>2022-05-18T00:25:56.000Z</time>
</trkpt>
<trkpt lat="31.6465230" lon="34.9253810">
<ele>320.000000</ele>
<time>2022-05-18T00:26:04.000Z</time>
</trkpt>
<trkpt lat="31.6464110" lon="34.9255860">
<ele>320.000000</ele>
<time>2022-05-18T00:26:08.000Z</time>
</trkpt>
<trkpt lat="31.6463430" lon="34.9258170">
<ele>320.000000</ele>
<time>2022-05-18T00:26:12.000Z</time>
</trkpt>
<trkpt lat="31.6463910" lon="34.9260010">
<ele>320.000000</ele>
<time>2022-05-18T00:26:16.000Z</time>
</trkpt>
<trkpt lat="31.6465420" lon="34.9262280">
<ele>317.000000</ele>
<time>2022-05-18T00:26:21.000Z</time>
</trkpt>
<trkpt lat="31.6466680" lon="34.9265020">
<ele>315.000000</ele>
<time>2022-05-18T00:26:26.000Z</time>
</trkpt>
<trkpt lat="31.6466960" lon="34.9267060">
<ele>315.000000</ele>
<time>2022-05-18T00:26:29.000Z</time>
</trkpt>
<trkpt lat="31.6466790" lon="34.9268920">
<ele>316.000000</ele>
<time>2022-05-18T00:26:33.000Z</time>
</trkpt>
<trkpt lat="31.6465090" lon="34.9272840">
<ele>318.000000</ele>
<time>2022-05-18T00:26:40.000Z</time>
</trkpt>
<trkpt lat="31.6459820" lon="34.9283750">
<ele>320.000000</ele>
<time>2022-05-18T00:27:02.000Z</time>
</trkpt>
<trkpt lat="31.6457120" lon="34.9287810">
<ele>322.000000</ele>
<time>2022-05-18T00:27:10.000Z</time>
</trkpt>
<trkpt lat="31.6452490" lon="34.9292080">
<ele>323.999969</ele>
<time>2022-05-18T00:27:22.000Z</time>
</trkpt>
<trkpt lat="31.6445020" lon="34.9297700">
<ele>328.000000</ele>
<time>2022-05-18T00:27:40.000Z</time>
</trkpt>
<trkpt lat="31.6425480" lon="34.9311710">
<ele>334.000000</ele>
<time>2022-05-18T00:28:26.000Z</time>
</trkpt>
<trkpt lat="31.6423220" lon="34.9313210">
<ele>335.000031</ele>
<time>2022-05-18T00:28:31.000Z</time>
</trkpt>
<trkpt lat="31.6417830" lon="34.9315990">
<ele>334.000000</ele>
<time>2022-05-18T00:28:43.000Z</time>
</trkpt>
<trkpt lat="31.6406630" lon="34.9321360">
<ele>339.000000</ele>
<time>2022-05-18T00:29:07.000Z</time>
</trkpt>
<trkpt lat="31.6399240" lon="34.9324160">
<ele>339.000000</ele>
<time>2022-05-18T00:29:23.000Z</time>
</trkpt>
<trkpt lat="31.6394750" lon="34.9326070">
<ele>340.000000</ele>
<time>2022-05-18T00:29:32.000Z</time>
</trkpt>
<trkpt lat="31.6391590" lon="34.9327860">
<ele>341.000000</ele>
<time>2022-05-18T00:29:39.000Z</time>
</trkpt>
<trkpt lat="31.6387550" lon="34.9330790">
<ele>344.000000</ele>
<time>2022-05-18T00:29:49.000Z</time>
</trkpt>
<trkpt lat="31.6383390" lon="34.9334300">
<ele>344.000000</ele>
<time>2022-05-18T00:29:59.000Z</time>
</trkpt>
<trkpt lat="31.6379440" lon="34.9338400">
<ele>348.000000</ele>
<time>2022-05-18T00:30:09.000Z</time>
</trkpt>
<trkpt lat="31.6377300" lon="34.9341170">
<ele>348.000000</ele>
<time>2022-05-18T00:30:16.000Z</time>
</trkpt>
<trkpt lat="31.6373810" lon="34.9348210">
<ele>349.000031</ele>
<time>2022-05-18T00:30:30.000Z</time>
</trkpt>
<trkpt lat="31.6369890" lon="34.9356120">
<ele>350.000000</ele>
<time>2022-05-18T00:30:45.000Z</time>
</trkpt>
<trkpt lat="31.6368990" lon="34.9355780">
<ele>349.000031</ele>
<time>2022-05-18T00:30:47.000Z</time>
</trkpt>
<trkpt lat="31.6368070" lon="34.9356200">
<ele>349.000031</ele>
<time>2022-05-18T00:30:49.000Z</time>
</trkpt>
<trkpt lat="31.6367280" lon="34.9356730">
<ele>348.000000</ele>
<time>2022-05-18T00:30:51.000Z</time>
</trkpt>
<trkpt lat="31.6366250" lon="34.9357950">
<ele>347.000000</ele>
<time>2022-05-18T00:30:54.000Z</time>
</trkpt>
<trkpt lat="31.6365410" lon="34.9358230">
<ele>347.000000</ele>
<time>2022-05-18T00:30:56.000Z</time>
</trkpt>
<trkpt lat="31.6362620" lon="34.9359670">
<ele>350.000000</ele>
<time>2022-05-18T00:31:02.000Z</time>
</trkpt>
<trkpt lat="31.6361170" lon="34.9360850">
<ele>351.000000</ele>
<time>2022-05-18T00:31:05.000Z</time>
</trkpt>
<trkpt lat="31.6359800" lon="34.9361480">
<ele>351.999969</ele>
<time>2022-05-18T00:31:08.000Z</time>
</trkpt>
<trkpt lat="31.6354680" lon="34.9362130">
<ele>354.000000</ele>
<time>2022-05-18T00:31:19.000Z</time>
</trkpt>
<trkpt lat="31.6353720" lon="34.9364110">
<ele>354.000000</ele>
<time>2022-05-18T00:31:23.000Z</time>
</trkpt>
<trkpt lat="31.6353580" lon="34.9365040">
<ele>354.000000</ele>
<time>2022-05-18T00:31:24.000Z</time>
</trkpt>
<trkpt lat="31.6353140" lon="34.9365760">
<ele>354.000000</ele>
<time>2022-05-18T00:31:26.000Z</time>
</trkpt>
<trkpt lat="31.6353050" lon="34.9367470">
<ele>355.000000</ele>
<time>2022-05-18T00:31:29.000Z</time>
</trkpt>
<trkpt lat="31.6351390" lon="34.9370290">
<ele>357.000000</ele>
<time>2022-05-18T00:31:34.000Z</time>
</trkpt>
<trkpt lat="31.6344810" lon="34.9379550">
<ele>365.000000</ele>
<time>2022-05-18T00:31:55.000Z</time>
</trkpt>
<trkpt lat="31.6342260" lon="34.9387150">
<ele>366.000000</ele>
<time>2022-05-18T00:32:09.000Z</time>
</trkpt>
<trkpt lat="31.6340310" lon="34.9390110">
<ele>368.000000</ele>
<time>2022-05-18T00:32:15.000Z</time>
</trkpt>
<trkpt lat="31.6338260" lon="34.9394560">
<ele>372.000000</ele>
<time>2022-05-18T00:32:24.000Z</time>
</trkpt>
<trkpt lat="31.6336620" lon="34.9399750">
<ele>373.000000</ele>
<time>2022-05-18T00:32:33.000Z</time>
</trkpt>
<trkpt lat="31.6335230" lon="34.9401660">
<ele>373.000000</ele>
<time>2022-05-18T00:32:38.000Z</time>
</trkpt>
<trkpt lat="31.6334300" lon="34.9402360">
<ele>373.000000</ele>
<time>2022-05-18T00:32:40.000Z</time>
</trkpt>
<trkpt lat="31.6330670" lon="34.9404370">
<ele>376.000000</ele>
<time>2022-05-18T00:32:48.000Z</time>
</trkpt>
<trkpt lat="31.6329280" lon="34.9405750">
<ele>376.000000</ele>
<time>2022-05-18T00:32:52.000Z</time>
</trkpt>
<trkpt lat="31.6327600" lon="34.9408090">
<ele>375.000000</ele>
<time>2022-05-18T00:32:57.000Z</time>
</trkpt>
<trkpt lat="31.6325750" lon="34.9410090">
<ele>376.000000</ele>
<time>2022-05-18T00:33:02.000Z</time>
</trkpt>
<trkpt lat="31.6324110" lon="34.9411070">
<ele>376.999969</ele>
<time>2022-05-18T00:33:06.000Z</time>
</trkpt>
<trkpt lat="31.6322780" lon="34.9412130">
<ele>378.000000</ele>
<time>2022-05-18T00:33:09.000Z</time>
</trkpt>
<trkpt lat="31.6320080" lon="34.9416270">
<ele>381.000000</ele>
<time>2022-05-18T00:33:18.000Z</time>
</trkpt>
<trkpt lat="31.6319760" lon="34.9417280">
<ele>381.000000</ele>
<time>2022-05-18T00:33:20.000Z</time>
</trkpt>
<trkpt lat="31.6318910" lon="34.9418960">
<ele>382.000000</ele>
<time>2022-05-18T00:33:23.000Z</time>
</trkpt>
<trkpt lat="31.6315730" lon="34.9422820">
<ele>384.000000</ele>
<time>2022-05-18T00:33:32.000Z</time>
</trkpt>
<trkpt lat="31.6315290" lon="34.9423570">
<ele>384.000000</ele>
<time>2022-05-18T00:33:34.000Z</time>
</trkpt>
<trkpt lat="31.6314530" lon="34.9425900">
<ele>386.000000</ele>
<time>2022-05-18T00:33:38.000Z</time>
</trkpt>
<trkpt lat="31.6313550" lon="34.9428100">
<ele>387.999969</ele>
<time>2022-05-18T00:33:42.000Z</time>
</trkpt>
<trkpt lat="31.6309500" lon="34.9433210">
<ele>389.000000</ele>
<time>2022-05-18T00:33:54.000Z</time>
</trkpt>
<trkpt lat="31.6308390" lon="34.9434850">
<ele>390.000000</ele>
<time>2022-05-18T00:33:58.000Z</time>
</trkpt>
<trkpt lat="31.6305300" lon="34.9440470">
<ele>390.000000</ele>
<time>2022-05-18T00:34:09.000Z</time>
</trkpt>
<trkpt lat="31.6304880" lon="34.9441600">
<ele>389.000000</ele>
<time>2022-05-18T00:34:11.000Z</time>
</trkpt>
<trkpt lat="31.6303620" lon="34.9443250">
<ele>389.000000</ele>
<time>2022-05-18T00:34:15.000Z</time>
</trkpt>
<trkpt lat="31.6298410" lon="34.9443360">
<ele>382.000000</ele>
<time>2022-05-18T00:34:25.000Z</time>
</trkpt>
<trkpt lat="31.6296260" lon="34.9443030">
<ele>380.000000</ele>
<time>2022-05-18T00:34:30.000Z</time>
</trkpt>
<trkpt lat="31.6295260" lon="34.9443300">
<ele>379.000000</ele>
<time>2022-05-18T00:34:32.000Z</time>
</trkpt>
<trkpt lat="31.6294230" lon="34.9443980">
<ele>378.000000</ele>
<time>2022-05-18T00:34:34.000Z</time>
</trkpt>
<trkpt lat="31.6293330" lon="34.9444350">
<ele>376.999969</ele>
<time>2022-05-18T00:34:36.000Z</time>
</trkpt>
<trkpt lat="31.6293060" lon="34.9444330">
<ele>376.999969</ele>
<time>2022-05-18T00:34:36.000Z</time>
</trkpt>
<trkpt lat="31.6292420" lon="34.9444270">
<ele>376.000000</ele>
<time>2022-05-18T00:34:38.000Z</time>
</trkpt>
<trkpt lat="31.6288950" lon="34.9441520">
<ele>373.000000</ele>
<time>2022-05-18T00:34:46.000Z</time>
</trkpt>
<trkpt lat="31.6286360" lon="34.9438970">
<ele>373.000000</ele>
<time>2022-05-18T00:34:53.000Z</time>
</trkpt>
<trkpt lat="31.6283070" lon="34.9434960">
<ele>370.000000</ele>
<time>2022-05-18T00:35:02.000Z</time>
</trkpt>
<trkpt lat="31.6281930" lon="34.9433790">
<ele>370.000000</ele>
<time>2022-05-18T00:35:05.000Z</time>
</trkpt>
<trkpt lat="31.6277470" lon="34.9430130">
<ele>369.000000</ele>
<time>2022-05-18T00:35:16.000Z</time>
</trkpt>
<trkpt lat="31.6275990" lon="34.9428680">
<ele>368.000000</ele>
<time>2022-05-18T00:35:20.000Z</time>
</trkpt>
<trkpt lat="31.6273920" lon="34.9426980">
<ele>366.000000</ele>
<time>2022-05-18T00:35:25.000Z</time>
</trkpt>
<trkpt lat="31.6270990" lon="34.9425090">
<ele>362.999969</ele>
<time>2022-05-18T00:35:32.000Z</time>
</trkpt>
<trkpt lat="31.6268940" lon="34.9423400">
<ele>361.000000</ele>
<time>2022-05-18T00:35:37.000Z</time>
</trkpt>
<trkpt lat="31.6267860" lon="34.9422460">
<ele>360.000031</ele>
<time>2022-05-18T00:35:40.000Z</time>
</trkpt>
<trkpt lat="31.6265260" lon="34.9419530">
<ele>356.000000</ele>
<time>2022-05-18T00:35:47.000Z</time>
</trkpt>
<trkpt lat="31.6264390" lon="34.9418740">
<ele>355.000000</ele>
<time>2022-05-18T00:35:49.000Z</time>
</trkpt>
<trkpt lat="31.6263420" lon="34.9418200">
<ele>354.000000</ele>
<time>2022-05-18T00:35:51.000Z</time>
</trkpt>
<trkpt lat="31.6258350" lon="34.9411060">
<ele>346.000031</ele>
<time>2022-05-18T00:36:07.000Z</time>
</trkpt>
<trkpt lat="31.6256910" lon="34.9408500">
<ele>348.000000</ele>
<time>2022-05-18T00:36:12.000Z</time>
</trkpt>
<trkpt lat="31.6256270" lon="34.9406890">
<ele>348.000000</ele>
<time>2022-05-18T00:36:15.000Z</time>
</trkpt>
<trkpt lat="31.6253930" lon="34.9399660">
<ele>346.000031</ele>
<time>2022-05-18T00:36:29.000Z</time>
</trkpt>
<trkpt lat="31.6253680" lon="34.9397280">
<ele>345.000000</ele>
<time>2022-05-18T00:36:33.000Z</time>
</trkpt>
<trkpt lat="31.6253410" lon="34.9396120">
<ele>345.000000</ele>
<time>2022-05-18T00:36:35.000Z</time>
</trkpt>
<trkpt lat="31.6252810" lon="34.9394800">
<ele>344.000000</ele>
<time>2022-05-18T00:36:37.000Z</time>
</trkpt>
<trkpt lat="31.6251490" lon="34.9392720">
<ele>340.000000</ele>
<time>2022-05-18T00:36:42.000Z</time>
</trkpt>
<trkpt lat="31.6250070" lon="34.9388510">
<ele>337.000000</ele>
<time>2022-05-18T00:36:49.000Z</time>
</trkpt>
<trkpt lat="31.6247700" lon="34.9382960">
<ele>337.999969</ele>
<time>2022-05-18T00:37:00.000Z</time>
</trkpt>
<trkpt lat="31.6246220" lon="34.9378560">
<ele>337.999969</ele>
<time>2022-05-18T00:37:08.000Z</time>
</trkpt>
<trkpt lat="31.6244330" lon="34.9374880">
<ele>335.000031</ele>
<time>2022-05-18T00:37:15.000Z</time>
</trkpt>
<trkpt lat="31.6243480" lon="34.9372520">
<ele>334.000000</ele>
<time>2022-05-18T00:37:20.000Z</time>
</trkpt>
<trkpt lat="31.6239530" lon="34.9355790">
<ele>328.000000</ele>
<time>2022-05-18T00:37:49.000Z</time>
</trkpt>
<trkpt lat="31.6238820" lon="34.9350420">
<ele>326.999969</ele>
<time>2022-05-18T00:37:59.000Z</time>
</trkpt>
<trkpt lat="31.6238940" lon="34.9347030">
<ele>325.000000</ele>
<time>2022-05-18T00:38:05.000Z</time>
</trkpt>
<trkpt lat="31.6238880" lon="34.9345380">
<ele>323.999969</ele>
<time>2022-05-18T00:38:07.000Z</time>
</trkpt>
<trkpt lat="31.6238610" lon="34.9343870">
<ele>323.999969</ele>
<time>2022-05-18T00:38:10.000Z</time>
</trkpt>
<trkpt lat="31.6237440" lon="34.9341300">
<ele>322.000000</ele>
<time>2022-05-18T00:38:15.000Z</time>
</trkpt>
<trkpt lat="31.6236400" lon="34.9338560">
<ele>321.000031</ele>
<time>2022-05-18T00:38:20.000Z</time>
</trkpt>
<trkpt lat="31.6235430" lon="34.9335320">
<ele>319.000000</ele>
<time>2022-05-18T00:38:26.000Z</time>
</trkpt>
<trkpt lat="31.6235330" lon="34.9333760">
<ele>318.000000</ele>
<time>2022-05-18T00:38:29.000Z</time>
</trkpt>
<trkpt lat="31.6235470" lon="34.9330780">
<ele>317.000000</ele>
<time>2022-05-18T00:38:34.000Z</time>
</trkpt>
<trkpt lat="31.6235270" lon="34.9329300">
<ele>317.000000</ele>
<time>2022-05-18T00:38:36.000Z</time>
</trkpt>
<trkpt lat="31.6233750" lon="34.9325480">
<ele>312.999969</ele>
<time>2022-05-18T00:38:43.000Z</time>
</trkpt>
<trkpt lat="31.6233579" lon="34.9323294">
<ele>312.000000</ele>
<time>2022-05-18T00:38:47.000Z</time>
</trkpt>
<trkpt lat="31.6233114" lon="34.9319959">
<ele>312.000000</ele>
<time>2022-05-18T00:38:53.000Z</time>
</trkpt>
<trkpt lat="31.6232910" lon="34.9316990">
<ele>312.000000</ele>
<time>2022-05-18T00:38:58.000Z</time>
</trkpt>
<trkpt lat="31.6233040" lon="34.9315460">
<ele>312.000000</ele>
<time>2022-05-18T00:39:01.000Z</time>
</trkpt>
<trkpt lat="31.6232610" lon="34.9307570">
<ele>309.000000</ele>
<time>2022-05-18T00:39:14.000Z</time>
</trkpt>
<trkpt lat="31.6232740" lon="34.9305180">
<ele>308.000000</ele>
<time>2022-05-18T00:39:18.000Z</time>
</trkpt>
<trkpt lat="31.6232600" lon="34.9303420">
<ele>308.000000</ele>
<time>2022-05-18T00:39:21.000Z</time>
</trkpt>
<trkpt lat="31.6232080" lon="34.9300460">
<ele>307.000000</ele>
<time>2022-05-18T00:39:26.000Z</time>
</trkpt>
<trkpt lat="31.6231410" lon="34.9297880">
<ele>307.000000</ele>
<time>2022-05-18T00:39:31.000Z</time>
</trkpt>
<trkpt lat="31.6229990" lon="34.9294770">
<ele>307.000000</ele>
<time>2022-05-18T00:39:37.000Z</time>
</trkpt>
<trkpt lat="31.6228620" lon="34.9292740">
<ele>307.000000</ele>
<time>2022-05-18T00:39:41.000Z</time>
</trkpt>
<trkpt lat="31.6226990" lon="34.9290720">
<ele>306.000000</ele>
<time>2022-05-18T00:39:46.000Z</time>
</trkpt>
<trkpt lat="31.6220950" lon="34.9283800">
<ele>304.000000</ele>
<time>2022-05-18T00:40:03.000Z</time>
</trkpt>
<trkpt lat="31.6214500" lon="34.9277790">
<ele>302.000000</ele>
<time>2022-05-18T00:40:20.000Z</time>
</trkpt>
<trkpt lat="31.6207280" lon="34.9274000">
<ele>302.000000</ele>
<time>2022-05-18T00:40:35.000Z</time>
</trkpt>
<trkpt lat="31.6201000" lon="34.9271410">
<ele>305.000000</ele>
<time>2022-05-18T00:40:49.000Z</time>
</trkpt>
<trkpt lat="31.6199600" lon="34.9270310">
<ele>304.000000</ele>
<time>2022-05-18T00:40:52.000Z</time>
</trkpt>
<trkpt lat="31.6196480" lon="34.9270120">
<ele>305.000000</ele>
<time>2022-05-18T00:40:58.000Z</time>
</trkpt>
<trkpt lat="31.6191670" lon="34.9267800">
<ele>302.000000</ele>
<time>2022-05-18T00:41:09.000Z</time>
</trkpt>
<trkpt lat="31.6188370" lon="34.9267000">
<ele>299.000000</ele>
<time>2022-05-18T00:41:16.000Z</time>
</trkpt>
<trkpt lat="31.6185470" lon="34.9267680">
<ele>299.000000</ele>
<time>2022-05-18T00:41:22.000Z</time>
</trkpt>
<trkpt lat="31.6184260" lon="34.9268330">
<ele>300.000000</ele>
<time>2022-05-18T00:41:24.000Z</time>
</trkpt>
<trkpt lat="31.6182890" lon="34.9269480">
<ele>301.000000</ele>
<time>2022-05-18T00:41:28.000Z</time>
</trkpt>
<trkpt lat="31.6182440" lon="34.9269860">
<ele>301.000000</ele>
<time>2022-05-18T00:41:29.000Z</time>
</trkpt>
<trkpt lat="31.6178290" lon="34.9273330">
<ele>302.000000</ele>
<time>2022-05-18T00:41:39.000Z</time>
</trkpt>
<trkpt lat="31.6176600" lon="34.9274220">
<ele>301.000000</ele>
<time>2022-05-18T00:41:43.000Z</time>
</trkpt>
<trkpt lat="31.6175420" lon="34.9274610">
<ele>300.000000</ele>
<time>2022-05-18T00:41:45.000Z</time>
</trkpt>
<trkpt lat="31.6171860" lon="34.9274750">
<ele>297.000000</ele>
<time>2022-05-18T00:41:52.000Z</time>
</trkpt>
<trkpt lat="31.6171210" lon="34.9274900">
<ele>296.000000</ele>
<time>2022-05-18T00:41:53.000Z</time>
</trkpt>
<trkpt lat="31.6170270" lon="34.9275490">
<ele>296.000000</ele>
<time>2022-05-18T00:41:56.000Z</time>
</trkpt>
<trkpt lat="31.6170010" lon="34.9276260">
<ele>296.000000</ele>
<time>2022-05-18T00:41:57.000Z</time>
</trkpt>
<trkpt lat="31.6169660" lon="34.9278750">
<ele>298.000000</ele>
<time>2022-05-18T00:42:01.000Z</time>
</trkpt>
<trkpt lat="31.6169190" lon="34.9280350">
<ele>299.000000</ele>
<time>2022-05-18T00:42:04.000Z</time>
</trkpt>
<trkpt lat="31.6167540" lon="34.9285040">
<ele>301.000000</ele>
<time>2022-05-18T00:42:13.000Z</time>
</trkpt>
<trkpt lat="31.6166800" lon="34.9286490">
<ele>301.000000</ele>
<time>2022-05-18T00:42:16.000Z</time>
</trkpt>
<trkpt lat="31.6165460" lon="34.9289940">
<ele>301.000000</ele>
<time>2022-05-18T00:42:22.000Z</time>
</trkpt>
<trkpt lat="31.6164530" lon="34.9291740">
<ele>302.000000</ele>
<time>2022-05-18T00:42:26.000Z</time>
</trkpt>
<trkpt lat="31.6164186" lon="34.9293100">
<ele>302.000000</ele>
<time>2022-05-18T00:42:28.000Z</time>
</trkpt>
<trkpt lat="31.6164228" lon="34.9296999">
<ele>306.000000</ele>
<time>2022-05-18T00:42:35.000Z</time>
</trkpt>
<trkpt lat="31.6164065" lon="34.9300218">
<ele>308.000000</ele>
<time>2022-05-18T00:42:40.000Z</time>
</trkpt>
<trkpt lat="31.6164100" lon="34.9300540">
<ele>309.000000</ele>
<time>2022-05-18T00:42:41.000Z</time>
</trkpt>
<trkpt lat="31.6163320" lon="34.9303350">
<ele>309.000000</ele>
<time>2022-05-18T00:42:46.000Z</time>
</trkpt>
<trkpt lat="31.6162090" lon="34.9305420">
<ele>308.000000</ele>
<time>2022-05-18T00:42:50.000Z</time>
</trkpt>
<trkpt lat="31.6160080" lon="34.9313510">
<ele>308.000000</ele>
<time>2022-05-18T00:43:05.000Z</time>
</trkpt>
<trkpt lat="31.6158100" lon="34.9319850">
<ele>307.000000</ele>
<time>2022-05-18T00:43:16.000Z</time>
</trkpt>
<trkpt lat="31.6157300" lon="34.9328250">
<ele>308.000000</ele>
<time>2022-05-18T00:43:31.000Z</time>
</trkpt>
<trkpt lat="31.6157250" lon="34.9332480">
<ele>309.000000</ele>
<time>2022-05-18T00:43:38.000Z</time>
</trkpt>
<trkpt lat="31.6156750" lon="34.9336670">
<ele>311.000000</ele>
<time>2022-05-18T00:43:45.000Z</time>
</trkpt>
<trkpt lat="31.6155840" lon="34.9339430">
<ele>311.000000</ele>
<time>2022-05-18T00:43:50.000Z</time>
</trkpt>
<trkpt lat="31.6155430" lon="34.9342760">
<ele>312.000000</ele>
<time>2022-05-18T00:43:56.000Z</time>
</trkpt>
<trkpt lat="31.6154740" lon="34.9345600">
<ele>311.000000</ele>
<time>2022-05-18T00:44:01.000Z</time>
</trkpt>
<trkpt lat="31.6154380" lon="34.9348960">
<ele>312.000000</ele>
<time>2022-05-18T00:44:07.000Z</time>
</trkpt>
<trkpt lat="31.6149400" lon="34.9372400">
<ele>317.000000</ele>
<time>2022-05-18T00:44:48.000Z</time>
</trkpt>
<trkpt lat="31.6149090" lon="34.9374480">
<ele>318.000000</ele>
<time>2022-05-18T00:44:52.000Z</time>
</trkpt>
<trkpt lat="31.6148480" lon="34.9376000">
<ele>318.000000</ele>
<time>2022-05-18T00:44:54.000Z</time>
</trkpt>
<trkpt lat="31.6147680" lon="34.9379250">
<ele>318.000000</ele>
<time>2022-05-18T00:45:00.000Z</time>
</trkpt>
<trkpt lat="31.6147250" lon="34.9381730">
<ele>318.000000</ele>
<time>2022-05-18T00:45:04.000Z</time>
</trkpt>
<trkpt lat="31.6147020" lon="34.9384250">
<ele>318.000000</ele>
<time>2022-05-18T00:45:09.000Z</time>
</trkpt>
<trkpt lat="31.6146810" lon="34.9390160">
<ele>319.000000</ele>
<time>2022-05-18T00:45:19.000Z</time>
</trkpt>
<trkpt lat="31.6147030" lon="34.9392680">
<ele>320.000000</ele>
<time>2022-05-18T00:45:23.000Z</time>
</trkpt>
<trkpt lat="31.6147460" lon="34.9394300">
<ele>320.000000</ele>
<time>2022-05-18T00:45:26.000Z</time>
</trkpt>
<trkpt lat="31.6148970" lon="34.9398590">
<ele>323.000000</ele>
<time>2022-05-18T00:45:34.000Z</time>
</trkpt>
<trkpt lat="31.6149750" lon="34.9402710">
<ele>322.000000</ele>
<time>2022-05-18T00:45:41.000Z</time>
</trkpt>
<trkpt lat="31.6150440" lon="34.9405110">
<ele>322.000000</ele>
<time>2022-05-18T00:45:46.000Z</time>
</trkpt>
<trkpt lat="31.6151740" lon="34.9408560">
<ele>322.000000</ele>
<time>2022-05-18T00:45:52.000Z</time>
</trkpt>
<trkpt lat="31.6151780" lon="34.9409610">
<ele>322.000000</ele>
<time>2022-05-18T00:45:54.000Z</time>
</trkpt>
<trkpt lat="31.6152450" lon="34.9411290">
<ele>323.000000</ele>
<time>2022-05-18T00:45:57.000Z</time>
</trkpt>
<trkpt lat="31.6152460" lon="34.9412530">
<ele>323.000000</ele>
<time>2022-05-18T00:45:59.000Z</time>
</trkpt>
<trkpt lat="31.6153000" lon="34.9414530">
<ele>325.000000</ele>
<time>2022-05-18T00:46:03.000Z</time>
</trkpt>
<trkpt lat="31.6152930" lon="34.9415800">
<ele>325.000000</ele>
<time>2022-05-18T00:46:05.000Z</time>
</trkpt>
<trkpt lat="31.6153120" lon="34.9417450">
<ele>325.000000</ele>
<time>2022-05-18T00:46:08.000Z</time>
</trkpt>
<trkpt lat="31.6153820" lon="34.9419390">
<ele>326.999969</ele>
<time>2022-05-18T00:46:11.000Z</time>
</trkpt>
<trkpt lat="31.6154190" lon="34.9421010">
<ele>328.000000</ele>
<time>2022-05-18T00:46:14.000Z</time>
</trkpt>
<trkpt lat="31.6155260" lon="34.9423220">
<ele>330.000000</ele>
<time>2022-05-18T00:46:18.000Z</time>
</trkpt>
<trkpt lat="31.6155980" lon="34.9425610">
<ele>332.000000</ele>
<time>2022-05-18T00:46:23.000Z</time>
</trkpt>
<trkpt lat="31.6157530" lon="34.9428950">
<ele>333.000000</ele>
<time>2022-05-18T00:46:29.000Z</time>
</trkpt>
<trkpt lat="31.6157800" lon="34.9430170">
<ele>333.000000</ele>
<time>2022-05-18T00:46:31.000Z</time>
</trkpt>
<trkpt lat="31.6158880" lon="34.9432350">
<ele>334.000000</ele>
<time>2022-05-18T00:46:36.000Z</time>
</trkpt>
<trkpt lat="31.6159390" lon="34.9433930">
<ele>333.000000</ele>
<time>2022-05-18T00:46:39.000Z</time>
</trkpt>
<trkpt lat="31.6160110" lon="34.9434860">
<ele>334.000000</ele>
<time>2022-05-18T00:46:41.000Z</time>
</trkpt>
<trkpt lat="31.6160670" lon="34.9435950">
<ele>334.000000</ele>
<time>2022-05-18T00:46:43.000Z</time>
</trkpt>
<trkpt lat="31.6160890" lon="34.9436750">
<ele>333.000000</ele>
<time>2022-05-18T00:46:44.000Z</time>
</trkpt>
<trkpt lat="31.6161020" lon="34.9441390">
<ele>330.000000</ele>
<time>2022-05-18T00:46:52.000Z</time>
</trkpt>
<trkpt lat="31.6160850" lon="34.9442640">
<ele>330.000000</ele>
<time>2022-05-18T00:46:54.000Z</time>
</trkpt>
<trkpt lat="31.6160055" lon="34.9444757">
<ele>329.000000</ele>
<time>2022-05-18T00:46:58.000Z</time>
</trkpt>
<trkpt lat="31.6158950" lon="34.9447700">
<ele>329.000000</ele>
<time>2022-05-18T00:47:04.000Z</time>
</trkpt>
<trkpt lat="31.6158330" lon="34.9449610">
<ele>328.000000</ele>
<time>2022-05-18T00:47:07.000Z</time>
</trkpt>
<trkpt lat="31.6156950" lon="34.9455750">
<ele>328.000000</ele>
<time>2022-05-18T00:47:18.000Z</time>
</trkpt>
<trkpt lat="31.6156160" lon="34.9461150">
<ele>329.000000</ele>
<time>2022-05-18T00:47:28.000Z</time>
</trkpt>
<trkpt lat="31.6155970" lon="34.9461960">
<ele>328.000000</ele>
<time>2022-05-18T00:47:29.000Z</time>
</trkpt>
<trkpt lat="31.6155330" lon="34.9463470">
<ele>328.000000</ele>
<time>2022-05-18T00:47:32.000Z</time>
</trkpt>
<trkpt lat="31.6155040" lon="34.9464690">
<ele>328.000000</ele>
<time>2022-05-18T00:47:34.000Z</time>
</trkpt>
<trkpt lat="31.6154730" lon="34.9467620">
<ele>326.999969</ele>
<time>2022-05-18T00:47:39.000Z</time>
</trkpt>
<trkpt lat="31.6154930" lon="34.9470150">
<ele>326.999969</ele>
<time>2022-05-18T00:47:43.000Z</time>
</trkpt>
<trkpt lat="31.6154770" lon="34.9472250">
<ele>326.000000</ele>
<time>2022-05-18T00:47:47.000Z</time>
</trkpt>
<trkpt lat="31.6153280" lon="34.9477460">
<ele>326.000000</ele>
<time>2022-05-18T00:47:56.000Z</time>
</trkpt>
<trkpt lat="31.6151960" lon="34.9480150">
<ele>326.000000</ele>
<time>2022-05-18T00:48:02.000Z</time>
</trkpt>
<trkpt lat="31.6145250" lon="34.9487440">
<ele>329.000000</ele>
<time>2022-05-18T00:48:20.000Z</time>
</trkpt>
<trkpt lat="31.6144220" lon="34.9487830">
<ele>328.000000</ele>
<time>2022-05-18T00:48:22.000Z</time>
</trkpt>
<trkpt lat="31.6142090" lon="34.9490090">
<ele>328.000000</ele>
<time>2022-05-18T00:48:28.000Z</time>
</trkpt>
<trkpt lat="31.6139630" lon="34.9491820">
<ele>326.999969</ele>
<time>2022-05-18T00:48:34.000Z</time>
</trkpt>
<trkpt lat="31.6138800" lon="34.9492620">
<ele>326.999969</ele>
<time>2022-05-18T00:48:36.000Z</time>
</trkpt>
<trkpt lat="31.6137970" lon="34.9493980">
<ele>328.000000</ele>
<time>2022-05-18T00:48:39.000Z</time>
</trkpt>
<trkpt lat="31.6137640" lon="34.9494730">
<ele>329.000000</ele>
<time>2022-05-18T00:48:40.000Z</time>
</trkpt>
<trkpt lat="31.6137480" lon="34.9495990">
<ele>330.000000</ele>
<time>2022-05-18T00:48:42.000Z</time>
</trkpt>
<trkpt lat="31.6136560" lon="34.9497800">
<ele>330.000000</ele>
<time>2022-05-18T00:48:46.000Z</time>
</trkpt>
<trkpt lat="31.6136250" lon="34.9499010">
<ele>331.000000</ele>
<time>2022-05-18T00:48:48.000Z</time>
</trkpt>
<trkpt lat="31.6134170" lon="34.9502960">
<ele>331.000000</ele>
<time>2022-05-18T00:48:56.000Z</time>
</trkpt>
<trkpt lat="31.6133370" lon="34.9505310">
<ele>331.000000</ele>
<time>2022-05-18T00:49:00.000Z</time>
</trkpt>
<trkpt lat="31.6132400" lon="34.9509380">
<ele>333.000000</ele>
<time>2022-05-18T00:49:07.000Z</time>
</trkpt>
<trkpt lat="31.6130660" lon="34.9514030">
<ele>331.000000</ele>
<time>2022-05-18T00:49:16.000Z</time>
</trkpt>
<trkpt lat="31.6129100" lon="34.9516340">
<ele>330.000000</ele>
<time>2022-05-18T00:49:21.000Z</time>
</trkpt>
<trkpt lat="31.6127900" lon="34.9517190">
<ele>330.000000</ele>
<time>2022-05-18T00:49:24.000Z</time>
</trkpt>
<trkpt lat="31.6126680" lon="34.9519260">
<ele>331.000000</ele>
<time>2022-05-18T00:49:28.000Z</time>
</trkpt>
<trkpt lat="31.6124490" lon="34.9524580">
<ele>333.000000</ele>
<time>2022-05-18T00:49:38.000Z</time>
</trkpt>
<trkpt lat="31.6124400" lon="34.9527110">
<ele>334.000000</ele>
<time>2022-05-18T00:49:43.000Z</time>
</trkpt>
<trkpt lat="31.6124720" lon="34.9528740">
<ele>335.000031</ele>
<time>2022-05-18T00:49:46.000Z</time>
</trkpt>
<trkpt lat="31.6124720" lon="34.9529590">
<ele>335.000031</ele>
<time>2022-05-18T00:49:47.000Z</time>
</trkpt>
<trkpt lat="31.6124500" lon="34.9530830">
<ele>335.000031</ele>
<time>2022-05-18T00:49:49.000Z</time>
</trkpt>
<trkpt lat="31.6123010" lon="34.9533700">
<ele>334.000000</ele>
<time>2022-05-18T00:49:55.000Z</time>
</trkpt>
<trkpt lat="31.6122220" lon="34.9536060">
<ele>334.000000</ele>
<time>2022-05-18T00:49:59.000Z</time>
</trkpt>
<trkpt lat="31.6122270" lon="34.9541080">
<ele>335.000031</ele>
<time>2022-05-18T00:50:08.000Z</time>
</trkpt>
<trkpt lat="31.6120430" lon="34.9538270">
<ele>333.000000</ele>
<time>2022-05-18T00:50:14.000Z</time>
</trkpt>
<trkpt lat="31.6119000" lon="34.9537290">
<ele>332.000000</ele>
<time>2022-05-18T00:50:17.000Z</time>
</trkpt>
<trkpt lat="31.6117940" lon="34.9537010">
<ele>331.000000</ele>
<time>2022-05-18T00:50:19.000Z</time>
</trkpt>
<trkpt lat="31.6115620" lon="34.9537080">
<ele>330.000000</ele>
<time>2022-05-18T00:50:24.000Z</time>
</trkpt>
<trkpt lat="31.6115438" lon="34.9538291">
<ele>330.000000</ele>
<time>2022-05-18T00:50:26.000Z</time>
</trkpt>
<trkpt lat="31.6114150" lon="34.9539470">
<ele>331.000000</ele>
<time>2022-05-18T00:50:29.000Z</time>
</trkpt>
<trkpt lat="31.6098810" lon="34.9558640">
<ele>341.000000</ele>
<time>2022-05-18T00:51:14.000Z</time>
</trkpt>
<trkpt lat="31.6098600" lon="34.9563320">
<ele>347.000000</ele>
<time>2022-05-18T00:51:22.000Z</time>
</trkpt>
<trkpt lat="31.6097790" lon="34.9571630">
<ele>351.999969</ele>
<time>2022-05-18T00:51:37.000Z</time>
</trkpt>
<trkpt lat="31.6092860" lon="34.9580010">
<ele>346.000031</ele>
<time>2022-05-18T00:51:54.000Z</time>
</trkpt>
<trkpt lat="31.6087480" lon="34.9585810">
<ele>345.000000</ele>
<time>2022-05-18T00:52:09.000Z</time>
</trkpt>
<trkpt lat="31.6082100" lon="34.9589350">
<ele>344.000000</ele>
<time>2022-05-18T00:52:21.000Z</time>
</trkpt>
<trkpt lat="31.6079070" lon="34.9595010">
<ele>346.000031</ele>
<time>2022-05-18T00:52:32.000Z</time>
</trkpt>
<trkpt lat="31.6077400" lon="34.9600970">
<ele>348.000000</ele>
<time>2022-05-18T00:52:43.000Z</time>
</trkpt>
<trkpt lat="31.6077280" lon="34.9601430">
<ele>348.000000</ele>
<time>2022-05-18T00:52:44.000Z</time>
</trkpt>
<trkpt lat="31.6077890" lon="34.9628400">
<ele>351.999969</ele>
<time>2022-05-18T00:53:30.000Z</time>
</trkpt>
<trkpt lat="31.6076118" lon="34.9638988">
<ele>351.000000</ele>
<time>2022-05-18T00:53:48.000Z</time>
</trkpt>
<trkpt lat="31.6075880" lon="34.9640410">
<ele>351.000000</ele>
<time>2022-05-18T00:53:51.000Z</time>
</trkpt>
<trkpt lat="31.6075790" lon="34.9644170">
<ele>351.999969</ele>
<time>2022-05-18T00:53:57.000Z</time>
</trkpt>
<trkpt lat="31.6078530" lon="34.9651030">
<ele>355.000000</ele>
<time>2022-05-18T00:54:10.000Z</time>
</trkpt>
<trkpt lat="31.6090870" lon="34.9666160">
<ele>359.000000</ele>
<time>2022-05-18T00:54:46.000Z</time>
</trkpt>
<trkpt lat="31.6102001" lon="34.9677110">
<ele>366.000000</ele>
<time>2022-05-18T00:55:15.000Z</time>
</trkpt>
<trkpt lat="31.6103210" lon="34.9678300">
<ele>367.000000</ele>
<time>2022-05-18T00:55:18.000Z</time>
</trkpt>
<trkpt lat="31.6109320" lon="34.9680640">
<ele>368.000000</ele>
<time>2022-05-18T00:55:31.000Z</time>
</trkpt>
<trkpt lat="31.6112030" lon="34.9680280">
<ele>370.000000</ele>
<time>2022-05-18T00:55:36.000Z</time>
</trkpt>
<trkpt lat="31.6119790" lon="34.9687930">
<ele>373.000000</ele>
<time>2022-05-18T00:55:57.000Z</time>
</trkpt>
<trkpt lat="31.6123050" lon="34.9690500">
<ele>372.000000</ele>
<time>2022-05-18T00:56:05.000Z</time>
</trkpt>
<trkpt lat="31.6126810" lon="34.9691870">
<ele>372.000000</ele>
<time>2022-05-18T00:56:13.000Z</time>
</trkpt>
<trkpt lat="31.6128600" lon="34.9693280">
<ele>374.000031</ele>
<time>2022-05-18T00:56:17.000Z</time>
</trkpt>
<trkpt lat="31.6130100" lon="34.9695660">
<ele>374.000031</ele>
<time>2022-05-18T00:56:22.000Z</time>
</trkpt>
<trkpt lat="31.6131130" lon="34.9696810">
<ele>374.000031</ele>
<time>2022-05-18T00:56:25.000Z</time>
</trkpt>
<trkpt lat="31.6133150" lon="34.9698590">
<ele>373.000000</ele>
<time>2022-05-18T00:56:30.000Z</time>
</trkpt>
<trkpt lat="31.6134680" lon="34.9699680">
<ele>372.000000</ele>
<time>2022-05-18T00:56:33.000Z</time>
</trkpt>
<trkpt lat="31.6136020" lon="34.9700290">
<ele>373.000000</ele>
<time>2022-05-18T00:56:36.000Z</time>
</trkpt>
<trkpt lat="31.6138660" lon="34.9702470">
<ele>374.000031</ele>
<time>2022-05-18T00:56:43.000Z</time>
</trkpt>
<trkpt lat="31.6139310" lon="34.9702840">
<ele>375.000000</ele>
<time>2022-05-18T00:56:44.000Z</time>
</trkpt>
<trkpt lat="31.6140740" lon="34.9702870">
<ele>376.000000</ele>
<time>2022-05-18T00:56:47.000Z</time>
</trkpt>
<trkpt lat="31.6143348" lon="34.9701871">
<ele>378.000000</ele>
<time>2022-05-18T00:56:53.000Z</time>
</trkpt>
<trkpt lat="31.6143820" lon="34.9701690">
<ele>378.000000</ele>
<time>2022-05-18T00:56:54.000Z</time>
</trkpt>
<trkpt lat="31.6145770" lon="34.9701390">
<ele>379.000000</ele>
<time>2022-05-18T00:56:57.000Z</time>
</trkpt>
<trkpt lat="31.6149900" lon="34.9701210">
<ele>382.000000</ele>
<time>2022-05-18T00:57:06.000Z</time>
</trkpt>
<trkpt lat="31.6152740" lon="34.9701610">
<ele>384.000000</ele>
<time>2022-05-18T00:57:11.000Z</time>
</trkpt>
<trkpt lat="31.6154910" lon="34.9701640">
<ele>386.000000</ele>
<time>2022-05-18T00:57:16.000Z</time>
</trkpt>
<trkpt lat="31.6158770" lon="34.9702570">
<ele>389.000000</ele>
<time>2022-05-18T00:57:24.000Z</time>
</trkpt>
<trkpt lat="31.6160140" lon="34.9703110">
<ele>389.000000</ele>
<time>2022-05-18T00:57:27.000Z</time>
</trkpt>
<trkpt lat="31.6162620" lon="34.9703530">
<ele>390.000000</ele>
<time>2022-05-18T00:57:32.000Z</time>
</trkpt>
<trkpt lat="31.6165690" lon="34.9703560">
<ele>390.000000</ele>
<time>2022-05-18T00:57:38.000Z</time>
</trkpt>
<trkpt lat="31.6168370" lon="34.9703780">
<ele>390.000000</ele>
<time>2022-05-18T00:57:43.000Z</time>
</trkpt>
<trkpt lat="31.6169410" lon="34.9704130">
<ele>391.000000</ele>
<time>2022-05-18T00:57:45.000Z</time>
</trkpt>
<trkpt lat="31.6172240" lon="34.9704620">
<ele>392.000000</ele>
<time>2022-05-18T00:57:51.000Z</time>
</trkpt>
<trkpt lat="31.6174390" lon="34.9704440">
<ele>393.000000</ele>
<time>2022-05-18T00:57:55.000Z</time>
</trkpt>
<trkpt lat="31.6175800" lon="34.9704540">
<ele>393.000000</ele>
<time>2022-05-18T00:57:58.000Z</time>
</trkpt>
<trkpt lat="31.6177790" lon="34.9703580">
<ele>394.000000</ele>
<time>2022-05-18T00:58:03.000Z</time>
</trkpt>
<trkpt lat="31.6180230" lon="34.9701790">
<ele>395.000000</ele>
<time>2022-05-18T00:58:08.000Z</time>
</trkpt>
<trkpt lat="31.6183050" lon="34.9699930">
<ele>394.000000</ele>
<time>2022-05-18T00:58:15.000Z</time>
</trkpt>
<trkpt lat="31.6184760" lon="34.9698400">
<ele>396.000000</ele>
<time>2022-05-18T00:58:19.000Z</time>
</trkpt>
<trkpt lat="31.6186720" lon="34.9695920">
<ele>398.000000</ele>
<time>2022-05-18T00:58:25.000Z</time>
</trkpt>
<trkpt lat="31.6187550" lon="34.9694540">
<ele>399.000031</ele>
<time>2022-05-18T00:58:28.000Z</time>
</trkpt>
<trkpt lat="31.6188040" lon="34.9692530">
<ele>399.000031</ele>
<time>2022-05-18T00:58:31.000Z</time>
</trkpt>
<trkpt lat="31.6187910" lon="34.9690430">
<ele>400.000000</ele>
<time>2022-05-18T00:58:35.000Z</time>
</trkpt>
<trkpt lat="31.6188260" lon="34.9689690">
<ele>400.000000</ele>
<time>2022-05-18T00:58:36.000Z</time>
</trkpt>
<trkpt lat="31.6194010" lon="34.9684680">
<ele>404.000000</ele>
<time>2022-05-18T00:58:51.000Z</time>
</trkpt>
<trkpt lat="31.6195160" lon="34.9683050">
<ele>405.000000</ele>
<time>2022-05-18T00:58:54.000Z</time>
</trkpt>
<trkpt lat="31.6198420" lon="34.9680450">
<ele>409.000000</ele>
<time>2022-05-18T00:59:02.000Z</time>
</trkpt>
<trkpt lat="31.6201040" lon="34.9676950">
<ele>410.000031</ele>
<time>2022-05-18T00:59:10.000Z</time>
</trkpt>
<trkpt lat="31.6203590" lon="34.9672560">
<ele>410.000031</ele>
<time>2022-05-18T00:59:19.000Z</time>
</trkpt>
<trkpt lat="31.6203290" lon="34.9673090">
<ele>410.000031</ele>
<time>2022-05-18T00:59:20.000Z</time>
</trkpt>
<trkpt lat="31.6206530" lon="34.9676470">
<ele>412.999969</ele>
<time>2022-05-18T00:59:29.000Z</time>
</trkpt>
<trkpt lat="31.6207700" lon="34.9678060">
<ele>414.000000</ele>
<time>2022-05-18T00:59:33.000Z</time>
</trkpt>
<trkpt lat="31.6209430" lon="34.9681930">
<ele>415.999969</ele>
<time>2022-05-18T00:59:40.000Z</time>
</trkpt>
<trkpt lat="31.6209840" lon="34.9683370">
<ele>417.000000</ele>
<time>2022-05-18T00:59:43.000Z</time>
</trkpt>
<trkpt lat="31.6209800" lon="34.9684600">
<ele>417.000000</ele>
<time>2022-05-18T00:59:45.000Z</time>
</trkpt>
<trkpt lat="31.6209410" lon="34.9686410">
<ele>418.000000</ele>
<time>2022-05-18T00:59:48.000Z</time>
</trkpt>
<trkpt lat="31.6208800" lon="34.9687530">
<ele>419.000000</ele>
<time>2022-05-18T00:59:50.000Z</time>
</trkpt>
<trkpt lat="31.6208230" lon="34.9690110">
<ele>419.000000</ele>
<time>2022-05-18T00:59:55.000Z</time>
</trkpt>
<trkpt lat="31.6207330" lon="34.9692110">
<ele>419.000000</ele>
<time>2022-05-18T00:59:59.000Z</time>
</trkpt>
<trkpt lat="31.6206310" lon="34.9695550">
<ele>419.000000</ele>
<time>2022-05-18T01:00:05.000Z</time>
</trkpt>
<trkpt lat="31.6206140" lon="34.9697530">
<ele>419.000000</ele>
<time>2022-05-18T01:00:08.000Z</time>
</trkpt>
<trkpt lat="31.6206120" lon="34.9700270">
<ele>420.000000</ele>
<time>2022-05-18T01:00:13.000Z</time>
</trkpt>
<trkpt lat="31.6206360" lon="34.9702660">
<ele>419.000000</ele>
<time>2022-05-18T01:00:17.000Z</time>
</trkpt>
<trkpt lat="31.6206620" lon="34.9703520">
<ele>419.000000</ele>
<time>2022-05-18T01:00:19.000Z</time>
</trkpt>
<trkpt lat="31.6208320" lon="34.9705930">
<ele>420.000000</ele>
<time>2022-05-18T01:00:24.000Z</time>
</trkpt>
<trkpt lat="31.6211910" lon="34.9709450">
<ele>421.000000</ele>
<time>2022-05-18T01:00:33.000Z</time>
</trkpt>
<trkpt lat="31.6214500" lon="34.9712430">
<ele>423.000000</ele>
<time>2022-05-18T01:00:41.000Z</time>
</trkpt>
<trkpt lat="31.6215020" lon="34.9713250">
<ele>424.000031</ele>
<time>2022-05-18T01:00:42.000Z</time>
</trkpt>
<trkpt lat="31.6215580" lon="34.9715120">
<ele>424.000031</ele>
<time>2022-05-18T01:00:46.000Z</time>
</trkpt>
<trkpt lat="31.6221360" lon="34.9719600">
<ele>423.000000</ele>
<time>2022-05-18T01:01:00.000Z</time>
</trkpt>
<trkpt lat="31.6224600" lon="34.9723340">
<ele>420.000000</ele>
<time>2022-05-18T01:01:09.000Z</time>
</trkpt>
<trkpt lat="31.6225680" lon="34.9724860">
<ele>418.000000</ele>
<time>2022-05-18T01:01:12.000Z</time>
</trkpt>
<trkpt lat="31.6229110" lon="34.9727510">
<ele>412.999969</ele>
<time>2022-05-18T01:01:20.000Z</time>
</trkpt>
<trkpt lat="31.6232630" lon="34.9729400">
<ele>408.000000</ele>
<time>2022-05-18T01:01:28.000Z</time>
</trkpt>
<trkpt lat="31.6235200" lon="34.9730290">
<ele>405.000000</ele>
<time>2022-05-18T01:01:33.000Z</time>
</trkpt>
<trkpt lat="31.6235730" lon="34.9732880">
<ele>404.000000</ele>
<time>2022-05-18T01:01:38.000Z</time>
</trkpt>
<trkpt lat="31.6235610" lon="34.9735770">
<ele>401.999969</ele>
<time>2022-05-18T01:01:43.000Z</time>
</trkpt>
<trkpt lat="31.6235370" lon="34.9736760">
<ele>401.999969</ele>
<time>2022-05-18T01:01:45.000Z</time>
</trkpt>
<trkpt lat="31.6234817" lon="34.9737987">
<ele>401.000000</ele>
<time>2022-05-18T01:01:47.000Z</time>
</trkpt>
<trkpt lat="31.6234700" lon="34.9738300">
<ele>401.000000</ele>
<time>2022-05-18T01:01:48.000Z</time>
</trkpt>
<trkpt lat="31.6233700" lon="34.9739900">
<ele>401.000000</ele>
<time>2022-05-18T01:01:51.000Z</time>
</trkpt>
<trkpt lat="31.6232800" lon="34.9741800">
<ele>401.000000</ele>
<time>2022-05-18T01:01:55.000Z</time>
</trkpt>
<trkpt lat="31.6232600" lon="34.9743800">
<ele>400.000000</ele>
<time>2022-05-18T01:01:58.000Z</time>
</trkpt>
<trkpt lat="31.6232700" lon="34.9745700">
<ele>400.000000</ele>
<time>2022-05-18T01:02:01.000Z</time>
</trkpt>
<trkpt lat="31.6233500" lon="34.9747200">
<ele>398.000000</ele>
<time>2022-05-18T01:02:04.000Z</time>
</trkpt>
<trkpt lat="31.6236100" lon="34.9753100">
<ele>395.000000</ele>
<time>2022-05-18T01:02:16.000Z</time>
</trkpt>
<trkpt lat="31.6236500" lon="34.9754600">
<ele>395.000000</ele>
<time>2022-05-18T01:02:18.000Z</time>
</trkpt>
<trkpt lat="31.6237600" lon="34.9756200">
<ele>394.000000</ele>
<time>2022-05-18T01:02:22.000Z</time>
</trkpt>
<trkpt lat="31.6239100" lon="34.9757400">
<ele>393.000000</ele>
<time>2022-05-18T01:02:26.000Z</time>
</trkpt>
<trkpt lat="31.6241900" lon="34.9758100">
<ele>391.000000</ele>
<time>2022-05-18T01:02:31.000Z</time>
</trkpt>
<trkpt lat="31.6243200" lon="34.9758200">
<ele>392.000000</ele>
<time>2022-05-18T01:02:34.000Z</time>
</trkpt>
<trkpt lat="31.6247700" lon="34.9757900">
<ele>393.000000</ele>
<time>2022-05-18T01:02:43.000Z</time>
</trkpt>
<trkpt lat="31.6266900" lon="34.9758800">
<ele>401.000000</ele>
<time>2022-05-18T01:03:21.000Z</time>
</trkpt>
<trkpt lat="31.6268100" lon="34.9759000">
<ele>401.000000</ele>
<time>2022-05-18T01:03:24.000Z</time>
</trkpt>
<trkpt lat="31.6270200" lon="34.9759700">
<ele>401.999969</ele>
<time>2022-05-18T01:03:28.000Z</time>
</trkpt>
<trkpt lat="31.6270100" lon="34.9759700">
<ele>401.999969</ele>
<time>2022-05-18T01:03:28.000Z</time>
</trkpt>
<trkpt lat="31.6277200" lon="34.9763700">
<ele>405.000000</ele>
<time>2022-05-18T01:03:44.000Z</time>
</trkpt>
<trkpt lat="31.6283000" lon="34.9767700">
<ele>406.000000</ele>
<time>2022-05-18T01:03:58.000Z</time>
</trkpt>
<trkpt lat="31.6284300" lon="34.9769200">
<ele>407.000000</ele>
<time>2022-05-18T01:04:01.000Z</time>
</trkpt>
<trkpt lat="31.6285100" lon="34.9770400">
<ele>407.000000</ele>
<time>2022-05-18T01:04:04.000Z</time>
</trkpt>
<trkpt lat="31.6287600" lon="34.9775800">
<ele>410.000031</ele>
<time>2022-05-18T01:04:14.000Z</time>
</trkpt>
<trkpt lat="31.6288200" lon="34.9776800">
<ele>410.000031</ele>
<time>2022-05-18T01:04:16.000Z</time>
</trkpt>
<trkpt lat="31.6288600" lon="34.9777200">
<ele>410.000031</ele>
<time>2022-05-18T01:04:18.000Z</time>
</trkpt>
<trkpt lat="31.6289400" lon="34.9777600">
<ele>410.000031</ele>
<time>2022-05-18T01:04:19.000Z</time>
</trkpt>
<trkpt lat="31.6290800" lon="34.9777600">
<ele>410.000031</ele>
<time>2022-05-18T01:04:22.000Z</time>
</trkpt>
<trkpt lat="31.6291900" lon="34.9777200">
<ele>409.000000</ele>
<time>2022-05-18T01:04:24.000Z</time>
</trkpt>
<trkpt lat="31.6294300" lon="34.9775700">
<ele>410.000031</ele>
<time>2022-05-18T01:04:30.000Z</time>
</trkpt>
<trkpt lat="31.6297000" lon="34.9774600">
<ele>411.000000</ele>
<time>2022-05-18T01:04:36.000Z</time>
</trkpt>
<trkpt lat="31.6301000" lon="34.9774000">
<ele>412.999969</ele>
<time>2022-05-18T01:04:44.000Z</time>
</trkpt>
<trkpt lat="31.6301800" lon="34.9773300">
<ele>412.999969</ele>
<time>2022-05-18T01:04:46.000Z</time>
</trkpt>
<trkpt lat="31.6302600" lon="34.9771700">
<ele>412.999969</ele>
<time>2022-05-18T01:04:49.000Z</time>
</trkpt>
<trkpt lat="31.6303100" lon="34.9769600">
<ele>412.999969</ele>
<time>2022-05-18T01:04:53.000Z</time>
</trkpt>
<trkpt lat="31.6304000" lon="34.9769200">
<ele>414.000000</ele>
<time>2022-05-18T01:04:54.000Z</time>
</trkpt>
<trkpt lat="31.6308800" lon="34.9769200">
<ele>420.000000</ele>
<time>2022-05-18T01:05:04.000Z</time>
</trkpt>
<trkpt lat="31.6309900" lon="34.9769000">
<ele>421.000000</ele>
<time>2022-05-18T01:05:06.000Z</time>
</trkpt>
<trkpt lat="31.6314600" lon="34.9769000">
<ele>424.000031</ele>
<time>2022-05-18T01:05:16.000Z</time>
</trkpt>
<trkpt lat="31.6316800" lon="34.9769700">
<ele>425.000000</ele>
<time>2022-05-18T01:05:20.000Z</time>
</trkpt>
<trkpt lat="31.6318700" lon="34.9770000">
<ele>425.000000</ele>
<time>2022-05-18T01:05:24.000Z</time>
</trkpt>
<trkpt lat="31.6320900" lon="34.9771100">
<ele>424.000031</ele>
<time>2022-05-18T01:05:29.000Z</time>
</trkpt>
<trkpt lat="31.6322200" lon="34.9771400">
<ele>423.000000</ele>
<time>2022-05-18T01:05:32.000Z</time>
</trkpt>
<trkpt lat="31.6326500" lon="34.9771000">
<ele>421.000000</ele>
<time>2022-05-18T01:05:40.000Z</time>
</trkpt>
<trkpt lat="31.6328200" lon="34.9770200">
<ele>420.000000</ele>
<time>2022-05-18T01:05:44.000Z</time>
</trkpt>
<trkpt lat="31.6334600" lon="34.9769000">
<ele>415.000000</ele>
<time>2022-05-18T01:05:57.000Z</time>
</trkpt>
<trkpt lat="31.6339100" lon="34.9768100">
<ele>411.000000</ele>
<time>2022-05-18T01:06:06.000Z</time>
</trkpt>
<trkpt lat="31.6343500" lon="34.9766700">
<ele>408.000000</ele>
<time>2022-05-18T01:06:15.000Z</time>
</trkpt>
<trkpt lat="31.6349400" lon="34.9763200">
<ele>406.000000</ele>
<time>2022-05-18T01:06:28.000Z</time>
</trkpt>
<trkpt lat="31.6355700" lon="34.9760300">
<ele>405.000000</ele>
<time>2022-05-18T01:06:42.000Z</time>
</trkpt>
<trkpt lat="31.6358800" lon="34.9759300">
<ele>403.000000</ele>
<time>2022-05-18T01:06:48.000Z</time>
</trkpt>
<trkpt lat="31.6360300" lon="34.9759100">
<ele>401.000000</ele>
<time>2022-05-18T01:06:51.000Z</time>
</trkpt>
<trkpt lat="31.6361700" lon="34.9759600">
<ele>400.000000</ele>
<time>2022-05-18T01:06:54.000Z</time>
</trkpt>
<trkpt lat="31.6365000" lon="34.9763000">
<ele>400.000000</ele>
<time>2022-05-18T01:07:03.000Z</time>
</trkpt>
<trkpt lat="31.6368300" lon="34.9764800">
<ele>399.000031</ele>
<time>2022-05-18T01:07:10.000Z</time>
</trkpt>
<trkpt lat="31.6369600" lon="34.9765300">
<ele>399.000031</ele>
<time>2022-05-18T01:07:13.000Z</time>
</trkpt>
<trkpt lat="31.6372400" lon="34.9767200">
<ele>400.000000</ele>
<time>2022-05-18T01:07:20.000Z</time>
</trkpt>
<trkpt lat="31.6373000" lon="34.9767900">
<ele>401.000000</ele>
<time>2022-05-18T01:07:21.000Z</time>
</trkpt>
<trkpt lat="31.6375400" lon="34.9771700">
<ele>404.000000</ele>
<time>2022-05-18T01:07:29.000Z</time>
</trkpt>
<trkpt lat="31.6376400" lon="34.9773900">
<ele>405.000000</ele>
<time>2022-05-18T01:07:34.000Z</time>
</trkpt>
<trkpt lat="31.6376500" lon="34.9775000">
<ele>406.000000</ele>
<time>2022-05-18T01:07:36.000Z</time>
</trkpt>
<trkpt lat="31.6376500" lon="34.9776200">
<ele>407.000000</ele>
<time>2022-05-18T01:07:38.000Z</time>
</trkpt>
<trkpt lat="31.6376900" lon="34.9777100">
<ele>407.000000</ele>
<time>2022-05-18T01:07:39.000Z</time>
</trkpt>
<trkpt lat="31.6377100" lon="34.9779400">
<ele>409.000000</ele>
<time>2022-05-18T01:07:43.000Z</time>
</trkpt>
<trkpt lat="31.6377000" lon="34.9781700">
<ele>411.000000</ele>
<time>2022-05-18T01:07:47.000Z</time>
</trkpt>
<trkpt lat="31.6376000" lon="34.9786200">
<ele>415.000000</ele>
<time>2022-05-18T01:07:55.000Z</time>
</trkpt>
<trkpt lat="31.6375900" lon="34.9789700">
<ele>417.000000</ele>
<time>2022-05-18T01:08:01.000Z</time>
</trkpt>
<trkpt lat="31.6376600" lon="34.9795300">
<ele>420.000000</ele>
<time>2022-05-18T01:08:11.000Z</time>
</trkpt>
<trkpt lat="31.6377000" lon="34.9796100">
<ele>420.000000</ele>
<time>2022-05-18T01:08:12.000Z</time>
</trkpt>
<trkpt lat="31.6378400" lon="34.9797700">
<ele>420.000000</ele>
<time>2022-05-18T01:08:16.000Z</time>
</trkpt>
<trkpt lat="31.6380200" lon="34.9799300">
<ele>421.000000</ele>
<time>2022-05-18T01:08:21.000Z</time>
</trkpt>
<trkpt lat="31.6384200" lon="34.9801900">
<ele>422.000000</ele>
<time>2022-05-18T01:08:30.000Z</time>
</trkpt>
<trkpt lat="31.6388600" lon="34.9806200">
<ele>426.000000</ele>
<time>2022-05-18T01:08:41.000Z</time>
</trkpt>
<trkpt lat="31.6389300" lon="34.9809700">
<ele>426.999969</ele>
<time>2022-05-18T01:08:48.000Z</time>
</trkpt>
<trkpt lat="31.6389600" lon="34.9815400">
<ele>426.999969</ele>
<time>2022-05-18T01:08:57.000Z</time>
</trkpt>
<trkpt lat="31.6388700" lon="34.9824000">
<ele>425.000000</ele>
<time>2022-05-18T01:09:12.000Z</time>
</trkpt>
<trkpt lat="31.6387900" lon="34.9830000">
<ele>426.000000</ele>
<time>2022-05-18T01:09:22.000Z</time>
</trkpt>
<trkpt lat="31.6387900" lon="34.9831700">
<ele>426.000000</ele>
<time>2022-05-18T01:09:25.000Z</time>
</trkpt>
<trkpt lat="31.6388200" lon="34.9832800">
<ele>426.000000</ele>
<time>2022-05-18T01:09:27.000Z</time>
</trkpt>
<trkpt lat="31.6389400" lon="34.9834000">
<ele>426.000000</ele>
<time>2022-05-18T01:09:30.000Z</time>
</trkpt>
<trkpt lat="31.6390900" lon="34.9834400">
<ele>424.000031</ele>
<time>2022-05-18T01:09:34.000Z</time>
</trkpt>
<trkpt lat="31.6392000" lon="34.9834100">
<ele>424.000031</ele>
<time>2022-05-18T01:09:36.000Z</time>
</trkpt>
<trkpt lat="31.6394000" lon="34.9832900">
<ele>423.000000</ele>
<time>2022-05-18T01:09:40.000Z</time>
</trkpt>
<trkpt lat="31.6396000" lon="34.9830900">
<ele>421.000000</ele>
<time>2022-05-18T01:09:46.000Z</time>
</trkpt>
<trkpt lat="31.6397300" lon="34.9830000">
<ele>421.000000</ele>
<time>2022-05-18T01:09:49.000Z</time>
</trkpt>
<trkpt lat="31.6402700" lon="34.9827600">
<ele>417.000000</ele>
<time>2022-05-18T01:10:00.000Z</time>
</trkpt>
<trkpt lat="31.6403800" lon="34.9827300">
<ele>417.000000</ele>
<time>2022-05-18T01:10:02.000Z</time>
</trkpt>
<trkpt lat="31.6405100" lon="34.9827100">
<ele>415.999969</ele>
<time>2022-05-18T01:10:05.000Z</time>
</trkpt>
<trkpt lat="31.6409300" lon="34.9827800">
<ele>415.000000</ele>
<time>2022-05-18T01:10:14.000Z</time>
</trkpt>
<trkpt lat="31.6412100" lon="34.9828900">
<ele>414.000000</ele>
<time>2022-05-18T01:10:19.000Z</time>
</trkpt>
<trkpt lat="31.6415500" lon="34.9830900">
<ele>412.999969</ele>
<time>2022-05-18T01:10:27.000Z</time>
</trkpt>
<trkpt lat="31.6416800" lon="34.9831900">
<ele>412.999969</ele>
<time>2022-05-18T01:10:30.000Z</time>
</trkpt>
<trkpt lat="31.6417400" lon="34.9832800">
<ele>412.999969</ele>
<time>2022-05-18T01:10:32.000Z</time>
</trkpt>
<trkpt lat="31.6418100" lon="34.9834200">
<ele>414.000000</ele>
<time>2022-05-18T01:10:35.000Z</time>
</trkpt>
<trkpt lat="31.6418800" lon="34.9836800">
<ele>415.000000</ele>
<time>2022-05-18T01:10:40.000Z</time>
</trkpt>
<trkpt lat="31.6419000" lon="34.9839600">
<ele>415.999969</ele>
<time>2022-05-18T01:10:44.000Z</time>
</trkpt>
<trkpt lat="31.6419200" lon="34.9841000">
<ele>415.999969</ele>
<time>2022-05-18T01:10:47.000Z</time>
</trkpt>
<trkpt lat="31.6419800" lon="34.9842200">
<ele>417.000000</ele>
<time>2022-05-18T01:10:49.000Z</time>
</trkpt>
<trkpt lat="31.6420900" lon="34.9842500">
<ele>417.000000</ele>
<time>2022-05-18T01:10:51.000Z</time>
</trkpt>
<trkpt lat="31.6421800" lon="34.9842100">
<ele>417.000000</ele>
<time>2022-05-18T01:10:53.000Z</time>
</trkpt>
<trkpt lat="31.6423700" lon="34.9840300">
<ele>415.000000</ele>
<time>2022-05-18T01:10:58.000Z</time>
</trkpt>
<trkpt lat="31.6424900" lon="34.9839400">
<ele>415.000000</ele>
<time>2022-05-18T01:11:01.000Z</time>
</trkpt>
<trkpt lat="31.6427700" lon="34.9837900">
<ele>415.999969</ele>
<time>2022-05-18T01:11:07.000Z</time>
</trkpt>
<trkpt lat="31.6428300" lon="34.9837200">
<ele>417.000000</ele>
<time>2022-05-18T01:11:09.000Z</time>
</trkpt>
<trkpt lat="31.6428600" lon="34.9836700">
<ele>417.000000</ele>
<time>2022-05-18T01:11:10.000Z</time>
</trkpt>
<trkpt lat="31.6428800" lon="34.9835800">
<ele>415.999969</ele>
<time>2022-05-18T01:11:12.000Z</time>
</trkpt>
<trkpt lat="31.6429000" lon="34.9832300">
<ele>415.000000</ele>
<time>2022-05-18T01:11:18.000Z</time>
</trkpt>
<trkpt lat="31.6429300" lon="34.9831200">
<ele>414.000000</ele>
<time>2022-05-18T01:11:20.000Z</time>
</trkpt>
<trkpt lat="31.6430300" lon="34.9829000">
<ele>414.000000</ele>
<time>2022-05-18T01:11:24.000Z</time>
</trkpt>
<trkpt lat="31.6432100" lon="34.9827500">
<ele>415.000000</ele>
<time>2022-05-18T01:11:28.000Z</time>
</trkpt>
<trkpt lat="31.6433600" lon="34.9826800">
<ele>415.000000</ele>
<time>2022-05-18T01:11:31.000Z</time>
</trkpt>
<trkpt lat="31.6435200" lon="34.9826300">
<ele>415.000000</ele>
<time>2022-05-18T01:11:35.000Z</time>
</trkpt>
<trkpt lat="31.6439500" lon="34.9825700">
<ele>415.999969</ele>
<time>2022-05-18T01:11:43.000Z</time>
</trkpt>
<trkpt lat="31.6444100" lon="34.9825700">
<ele>415.999969</ele>
<time>2022-05-18T01:11:53.000Z</time>
</trkpt>
<trkpt lat="31.6447000" lon="34.9825900">
<ele>415.999969</ele>
<time>2022-05-18T01:11:58.000Z</time>
</trkpt>
<trkpt lat="31.6448800" lon="34.9826300">
<ele>415.999969</ele>
<time>2022-05-18T01:12:02.000Z</time>
</trkpt>
<trkpt lat="31.6450700" lon="34.9826300">
<ele>415.999969</ele>
<time>2022-05-18T01:12:06.000Z</time>
</trkpt>
<trkpt lat="31.6452700" lon="34.9825500">
<ele>415.999969</ele>
<time>2022-05-18T01:12:10.000Z</time>
</trkpt>
<trkpt lat="31.6454600" lon="34.9823700">
<ele>415.999969</ele>
<time>2022-05-18T01:12:15.000Z</time>
</trkpt>
<trkpt lat="31.6459900" lon="34.9816000">
<ele>412.999969</ele>
<time>2022-05-18T01:12:32.000Z</time>
</trkpt>
<trkpt lat="31.6463000" lon="34.9809500">
<ele>412.000000</ele>
<time>2022-05-18T01:12:45.000Z</time>
</trkpt>
<trkpt lat="31.6464200" lon="34.9807800">
<ele>411.000000</ele>
<time>2022-05-18T01:12:48.000Z</time>
</trkpt>
<trkpt lat="31.6465000" lon="34.9807100">
<ele>411.000000</ele>
<time>2022-05-18T01:12:50.000Z</time>
</trkpt>
<trkpt lat="31.6466000" lon="34.9806600">
<ele>411.000000</ele>
<time>2022-05-18T01:12:53.000Z</time>
</trkpt>
<trkpt lat="31.6467100" lon="34.9806600">
<ele>411.000000</ele>
<time>2022-05-18T01:12:55.000Z</time>
</trkpt>
<trkpt lat="31.6467900" lon="34.9807300">
<ele>410.000031</ele>
<time>2022-05-18T01:12:57.000Z</time>
</trkpt>
<trkpt lat="31.6469200" lon="34.9809800">
<ele>408.000000</ele>
<time>2022-05-18T01:13:02.000Z</time>
</trkpt>
<trkpt lat="31.6471100" lon="34.9815300">
<ele>407.000000</ele>
<time>2022-05-18T01:13:12.000Z</time>
</trkpt>
<trkpt lat="31.6471700" lon="34.9816900">
<ele>407.000000</ele>
<time>2022-05-18T01:13:15.000Z</time>
</trkpt>
<trkpt lat="31.6472800" lon="34.9817800">
<ele>407.000000</ele>
<time>2022-05-18T01:13:18.000Z</time>
</trkpt>
<trkpt lat="31.6474200" lon="34.9817900">
<ele>406.000000</ele>
<time>2022-05-18T01:13:20.000Z</time>
</trkpt>
<trkpt lat="31.6475400" lon="34.9817300">
<ele>405.000000</ele>
<time>2022-05-18T01:13:23.000Z</time>
</trkpt>
<trkpt lat="31.6477800" lon="34.9815300">
<ele>403.000000</ele>
<time>2022-05-18T01:13:29.000Z</time>
</trkpt>
<trkpt lat="31.6480300" lon="34.9814100">
<ele>401.000000</ele>
<time>2022-05-18T01:13:34.000Z</time>
</trkpt>
<trkpt lat="31.6483100" lon="34.9813400">
<ele>399.000031</ele>
<time>2022-05-18T01:13:40.000Z</time>
</trkpt>
<trkpt lat="31.6486300" lon="34.9813100">
<ele>397.000000</ele>
<time>2022-05-18T01:13:47.000Z</time>
</trkpt>
<trkpt lat="31.6494300" lon="34.9813000">
<ele>389.000000</ele>
<time>2022-05-18T01:14:03.000Z</time>
</trkpt>
<trkpt lat="31.6496000" lon="34.9813500">
<ele>387.000000</ele>
<time>2022-05-18T01:14:06.000Z</time>
</trkpt>
<trkpt lat="31.6497600" lon="34.9814800">
<ele>384.000000</ele>
<time>2022-05-18T01:14:10.000Z</time>
</trkpt>
<trkpt lat="31.6499500" lon="34.9817000">
<ele>381.000000</ele>
<time>2022-05-18T01:14:15.000Z</time>
</trkpt>
<trkpt lat="31.6500200" lon="34.9818800">
<ele>380.000000</ele>
<time>2022-05-18T01:14:19.000Z</time>
</trkpt>
<trkpt lat="31.6500900" lon="34.9821000">
<ele>379.000000</ele>
<time>2022-05-18T01:14:23.000Z</time>
</trkpt>
<trkpt lat="31.6501300" lon="34.9824900">
<ele>379.000000</ele>
<time>2022-05-18T01:14:29.000Z</time>
</trkpt>
<trkpt lat="31.6501000" lon="34.9826800">
<ele>379.000000</ele>
<time>2022-05-18T01:14:33.000Z</time>
</trkpt>
<trkpt lat="31.6500000" lon="34.9830600">
<ele>379.000000</ele>
<time>2022-05-18T01:14:39.000Z</time>
</trkpt>
<trkpt lat="31.6499900" lon="34.9832200">
<ele>379.000000</ele>
<time>2022-05-18T01:14:42.000Z</time>
</trkpt>
<trkpt lat="31.6500500" lon="34.9833100">
<ele>379.000000</ele>
<time>2022-05-18T01:14:44.000Z</time>
</trkpt>
<trkpt lat="31.6501500" lon="34.9833200">
<ele>380.000000</ele>
<time>2022-05-18T01:14:46.000Z</time>
</trkpt>
<trkpt lat="31.6504500" lon="34.9831300">
<ele>381.000000</ele>
<time>2022-05-18T01:14:53.000Z</time>
</trkpt>
<trkpt lat="31.6506400" lon="34.9830600">
<ele>381.000000</ele>
<time>2022-05-18T01:14:57.000Z</time>
</trkpt>
<trkpt lat="31.6509000" lon="34.9830100">
<ele>380.000000</ele>
<time>2022-05-18T01:15:02.000Z</time>
</trkpt>
<trkpt lat="31.6511900" lon="34.9830700">
<ele>381.000000</ele>
<time>2022-05-18T01:15:08.000Z</time>
</trkpt>
<trkpt lat="31.6514600" lon="34.9832300">
<ele>384.000000</ele>
<time>2022-05-18T01:15:14.000Z</time>
</trkpt>
<trkpt lat="31.6515200" lon="34.9833000">
<ele>385.000031</ele>
<time>2022-05-18T01:15:16.000Z</time>
</trkpt>
<trkpt lat="31.6516900" lon="34.9836400">
<ele>389.000000</ele>
<time>2022-05-18T01:15:23.000Z</time>
</trkpt>
<trkpt lat="31.6518300" lon="34.9840900">
<ele>393.000000</ele>
<time>2022-05-18T01:15:31.000Z</time>
</trkpt>
<trkpt lat="31.6519100" lon="34.9844900">
<ele>400.000000</ele>
<time>2022-05-18T01:15:38.000Z</time>
</trkpt>
<trkpt lat="31.6519700" lon="34.9845800">
<ele>401.000000</ele>
<time>2022-05-18T01:15:40.000Z</time>
</trkpt>
<trkpt lat="31.6520400" lon="34.9846600">
<ele>401.999969</ele>
<time>2022-05-18T01:15:42.000Z</time>
</trkpt>
<trkpt lat="31.6522200" lon="34.9847700">
<ele>401.999969</ele>
<time>2022-05-18T01:15:46.000Z</time>
</trkpt>
<trkpt lat="31.6524200" lon="34.9848100">
<ele>400.000000</ele>
<time>2022-05-18T01:15:50.000Z</time>
</trkpt>
<trkpt lat="31.6526900" lon="34.9849400">
<ele>399.000031</ele>
<time>2022-05-18T01:15:56.000Z</time>
</trkpt>
<trkpt lat="31.6530100" lon="34.9852100">
<ele>399.000031</ele>
<time>2022-05-18T01:16:04.000Z</time>
</trkpt>
<trkpt lat="31.6532400" lon="34.9855000">
<ele>400.000000</ele>
<time>2022-05-18T01:16:10.000Z</time>
</trkpt>
<trkpt lat="31.6534000" lon="34.9857800">
<ele>401.000000</ele>
<time>2022-05-18T01:16:16.000Z</time>
</trkpt>
<trkpt lat="31.6534700" lon="34.9859600">
<ele>400.000000</ele>
<time>2022-05-18T01:16:20.000Z</time>
</trkpt>
<trkpt lat="31.6535600" lon="34.9862800">
<ele>399.000031</ele>
<time>2022-05-18T01:16:25.000Z</time>
</trkpt>
<trkpt lat="31.6535800" lon="34.9865300">
<ele>399.000031</ele>
<time>2022-05-18T01:16:30.000Z</time>
</trkpt>
<trkpt lat="31.6535600" lon="34.9866800">
<ele>400.000000</ele>
<time>2022-05-18T01:16:32.000Z</time>
</trkpt>
<trkpt lat="31.6535200" lon="34.9868200">
<ele>400.000000</ele>
<time>2022-05-18T01:16:35.000Z</time>
</trkpt>
<trkpt lat="31.6534200" lon="34.9870000">
<ele>400.000000</ele>
<time>2022-05-18T01:16:38.000Z</time>
</trkpt>
<trkpt lat="31.6532800" lon="34.9871900">
<ele>401.000000</ele>
<time>2022-05-18T01:16:43.000Z</time>
</trkpt>
<trkpt lat="31.6529500" lon="34.9875100">
<ele>403.000000</ele>
<time>2022-05-18T01:16:51.000Z</time>
</trkpt>
<trkpt lat="31.6526800" lon="34.9878400">
<ele>404.000000</ele>
<time>2022-05-18T01:16:59.000Z</time>
</trkpt>
<trkpt lat="31.6526300" lon="34.9879300">
<ele>403.000000</ele>
<time>2022-05-18T01:17:01.000Z</time>
</trkpt>
<trkpt lat="31.6525700" lon="34.9881100">
<ele>401.999969</ele>
<time>2022-05-18T01:17:04.000Z</time>
</trkpt>
<trkpt lat="31.6525300" lon="34.9883600">
<ele>400.000000</ele>
<time>2022-05-18T01:17:08.000Z</time>
</trkpt>
<trkpt lat="31.6525400" lon="34.9885500">
<ele>399.000031</ele>
<time>2022-05-18T01:17:12.000Z</time>
</trkpt>
<trkpt lat="31.6527100" lon="34.9897400">
<ele>394.000000</ele>
<time>2022-05-18T01:17:32.000Z</time>
</trkpt>
<trkpt lat="31.6527100" lon="34.9897300">
<ele>394.000000</ele>
<time>2022-05-18T01:17:32.000Z</time>
</trkpt>
<trkpt lat="31.6527400" lon="34.9899300">
<ele>393.000000</ele>
<time>2022-05-18T01:17:36.000Z</time>
</trkpt>
<trkpt lat="31.6527000" lon="34.9901500">
<ele>393.000000</ele>
<time>2022-05-18T01:17:40.000Z</time>
</trkpt>
<trkpt lat="31.6526808" lon="34.9902116">
<ele>393.000000</ele>
<time>2022-05-18T01:17:41.000Z</time>
</trkpt>
<trkpt lat="31.6526500" lon="34.9903100">
<ele>393.000000</ele>
<time>2022-05-18T01:17:43.000Z</time>
</trkpt>
<trkpt lat="31.6525700" lon="34.9904800">
<ele>393.000000</ele>
<time>2022-05-18T01:17:46.000Z</time>
</trkpt>
<trkpt lat="31.6524400" lon="34.9905800">
<ele>394.000000</ele>
<time>2022-05-18T01:17:49.000Z</time>
</trkpt>
<trkpt lat="31.6525400" lon="34.9909100">
<ele>393.000000</ele>
<time>2022-05-18T01:17:55.000Z</time>
</trkpt>
<trkpt lat="31.6528600" lon="34.9914100">
<ele>396.000000</ele>
<time>2022-05-18T01:18:06.000Z</time>
</trkpt>
<trkpt lat="31.6531500" lon="34.9915200">
<ele>397.000000</ele>
<time>2022-05-18T01:18:12.000Z</time>
</trkpt>
<trkpt lat="31.6532600" lon="34.9915400">
<ele>397.000000</ele>
<time>2022-05-18T01:18:14.000Z</time>
</trkpt>
<trkpt lat="31.6532900" lon="34.9909500">
<ele>394.000000</ele>
<time>2022-05-18T01:18:24.000Z</time>
</trkpt>
<trkpt lat="31.6533400" lon="34.9906100">
<ele>392.000000</ele>
<time>2022-05-18T01:18:30.000Z</time>
</trkpt>
<trkpt lat="31.6536600" lon="34.9893900">
<ele>391.000000</ele>
<time>2022-05-18T01:18:52.000Z</time>
</trkpt>
<trkpt lat="31.6538000" lon="34.9890100">
<ele>390.000000</ele>
<time>2022-05-18T01:18:59.000Z</time>
</trkpt>
<trkpt lat="31.6538800" lon="34.9888800">
<ele>390.000000</ele>
<time>2022-05-18T01:19:02.000Z</time>
</trkpt>
<trkpt lat="31.6543200" lon="34.9883200">
<ele>387.000000</ele>
<time>2022-05-18T01:19:15.000Z</time>
</trkpt>
<trkpt lat="31.6544800" lon="34.9881100">
<ele>387.000000</ele>
<time>2022-05-18T01:19:19.000Z</time>
</trkpt>
<trkpt lat="31.6546500" lon="34.9878100">
<ele>386.000000</ele>
<time>2022-05-18T01:19:26.000Z</time>
</trkpt>
<trkpt lat="31.6548000" lon="34.9874900">
<ele>384.000000</ele>
<time>2022-05-18T01:19:32.000Z</time>
</trkpt>
<trkpt lat="31.6549000" lon="34.9872500">
<ele>383.000000</ele>
<time>2022-05-18T01:19:36.000Z</time>
</trkpt>
<trkpt lat="31.6550000" lon="34.9869500">
<ele>380.000000</ele>
<time>2022-05-18T01:19:42.000Z</time>
</trkpt>
<trkpt lat="31.6550300" lon="34.9868100">
<ele>379.000000</ele>
<time>2022-05-18T01:19:44.000Z</time>
</trkpt>
<trkpt lat="31.6551000" lon="34.9861800">
<ele>376.999969</ele>
<time>2022-05-18T01:19:55.000Z</time>
</trkpt>
<trkpt lat="31.6550900" lon="34.9860300">
<ele>376.000000</ele>
<time>2022-05-18T01:19:58.000Z</time>
</trkpt>
<trkpt lat="31.6550400" lon="34.9857500">
<ele>375.000000</ele>
<time>2022-05-18T01:20:03.000Z</time>
</trkpt>
<trkpt lat="31.6547200" lon="34.9849300">
<ele>376.999969</ele>
<time>2022-05-18T01:20:18.000Z</time>
</trkpt>
<trkpt lat="31.6546500" lon="34.9848200">
<ele>376.999969</ele>
<time>2022-05-18T01:20:20.000Z</time>
</trkpt>
<trkpt lat="31.6537100" lon="34.9836200">
<ele>376.000000</ele>
<time>2022-05-18T01:20:48.000Z</time>
</trkpt>
<trkpt lat="31.6536300" lon="34.9834900">
<ele>375.000000</ele>
<time>2022-05-18T01:20:51.000Z</time>
</trkpt>
<trkpt lat="31.6530200" lon="34.9822900">
<ele>370.000000</ele>
<time>2022-05-18T01:21:15.000Z</time>
</trkpt>
<trkpt lat="31.6526300" lon="34.9816800">
<ele>366.000000</ele>
<time>2022-05-18T01:21:28.000Z</time>
</trkpt>
<trkpt lat="31.6525600" lon="34.9815300">
<ele>365.000000</ele>
<time>2022-05-18T01:21:31.000Z</time>
</trkpt>
<trkpt lat="31.6525100" lon="34.9813800">
<ele>364.000000</ele>
<time>2022-05-18T01:21:33.000Z</time>
</trkpt>
<trkpt lat="31.6525000" lon="34.9812200">
<ele>362.999969</ele>
<time>2022-05-18T01:21:36.000Z</time>
</trkpt>
<trkpt lat="31.6525400" lon="34.9808600">
<ele>364.000000</ele>
<time>2022-05-18T01:21:42.000Z</time>
</trkpt>
<trkpt lat="31.6525900" lon="34.9805400">
<ele>364.000000</ele>
<time>2022-05-18T01:21:48.000Z</time>
</trkpt>
<trkpt lat="31.6529400" lon="34.9795100">
<ele>366.000000</ele>
<time>2022-05-18T01:22:07.000Z</time>
</trkpt>
<trkpt lat="31.6532100" lon="34.9785300">
<ele>361.000000</ele>
<time>2022-05-18T01:22:24.000Z</time>
</trkpt>
<trkpt lat="31.6532800" lon="34.9783400">
<ele>360.000031</ele>
<time>2022-05-18T01:22:28.000Z</time>
</trkpt>
<trkpt lat="31.6532300" lon="34.9780400">
<ele>361.000000</ele>
<time>2022-05-18T01:22:33.000Z</time>
</trkpt>
<trkpt lat="31.6530100" lon="34.9773600">
<ele>361.000000</ele>
<time>2022-05-18T01:22:46.000Z</time>
</trkpt>
<trkpt lat="31.6529100" lon="34.9767800">
<ele>358.000000</ele>
<time>2022-05-18T01:22:56.000Z</time>
</trkpt>
<trkpt lat="31.6528400" lon="34.9765100">
<ele>357.000000</ele>
<time>2022-05-18T01:23:00.000Z</time>
</trkpt>
<trkpt lat="31.6528300" lon="34.9765100">
<ele>357.000000</ele>
<time>2022-05-18T01:23:01.000Z</time>
</trkpt>
<trkpt lat="31.6528200" lon="34.9764400">
<ele>357.000000</ele>
<time>2022-05-18T01:23:02.000Z</time>
</trkpt>
<trkpt lat="31.6527000" lon="34.9762100">
<ele>355.000000</ele>
<time>2022-05-18T01:23:06.000Z</time>
</trkpt>
<trkpt lat="31.6525000" lon="34.9759200">
<ele>353.000000</ele>
<time>2022-05-18T01:23:13.000Z</time>
</trkpt>
<trkpt lat="31.6524000" lon="34.9756900">
<ele>353.000000</ele>
<time>2022-05-18T01:23:17.000Z</time>
</trkpt>
<trkpt lat="31.6523800" lon="34.9755600">
<ele>353.000000</ele>
<time>2022-05-18T01:23:19.000Z</time>
</trkpt>
<trkpt lat="31.6524000" lon="34.9753200">
<ele>351.999969</ele>
<time>2022-05-18T01:23:24.000Z</time>
</trkpt>
<trkpt lat="31.6524600" lon="34.9751000">
<ele>351.000000</ele>
<time>2022-05-18T01:23:28.000Z</time>
</trkpt>
<trkpt lat="31.6525000" lon="34.9749900">
<ele>350.000000</ele>
<time>2022-05-18T01:23:30.000Z</time>
</trkpt>
<trkpt lat="31.6530100" lon="34.9740000">
<ele>351.000000</ele>
<time>2022-05-18T01:23:49.000Z</time>
</trkpt>
<trkpt lat="31.6530600" lon="34.9737700">
<ele>350.000000</ele>
<time>2022-05-18T01:23:53.000Z</time>
</trkpt>
<trkpt lat="31.6530900" lon="34.9732200">
<ele>349.000031</ele>
<time>2022-05-18T01:24:03.000Z</time>
</trkpt>
<trkpt lat="31.6531200" lon="34.9730500">
<ele>349.000031</ele>
<time>2022-05-18T01:24:06.000Z</time>
</trkpt>
<trkpt lat="31.6532400" lon="34.9726600">
<ele>348.000000</ele>
<time>2022-05-18T01:24:13.000Z</time>
</trkpt>
<trkpt lat="31.6534000" lon="34.9722400">
<ele>347.000000</ele>
<time>2022-05-18T01:24:21.000Z</time>
</trkpt>
<trkpt lat="31.6536400" lon="34.9717600">
<ele>348.000000</ele>
<time>2022-05-18T01:24:30.000Z</time>
</trkpt>
<trkpt lat="31.6536900" lon="34.9716000">
<ele>348.000000</ele>
<time>2022-05-18T01:24:33.000Z</time>
</trkpt>
<trkpt lat="31.6538100" lon="34.9709200">
<ele>345.000000</ele>
<time>2022-05-18T01:24:45.000Z</time>
</trkpt>
<trkpt lat="31.6540600" lon="34.9704500">
<ele>343.000000</ele>
<time>2022-05-18T01:24:54.000Z</time>
</trkpt>
<trkpt lat="31.6543600" lon="34.9698200">
<ele>342.000000</ele>
<time>2022-05-18T01:25:07.000Z</time>
</trkpt>
<trkpt lat="31.6544200" lon="34.9696700">
<ele>342.000000</ele>
<time>2022-05-18T01:25:09.000Z</time>
</trkpt>
<trkpt lat="31.6544800" lon="34.9693900">
<ele>342.000000</ele>
<time>2022-05-18T01:25:14.000Z</time>
</trkpt>
<trkpt lat="31.6545200" lon="34.9683100">
<ele>342.000000</ele>
<time>2022-05-18T01:25:33.000Z</time>
</trkpt>
<trkpt lat="31.6544800" lon="34.9681200">
<ele>342.000000</ele>
<time>2022-05-18T01:25:36.000Z</time>
</trkpt>
<trkpt lat="31.6545100" lon="34.9678600">
<ele>342.000000</ele>
<time>2022-05-18T01:25:41.000Z</time>
</trkpt>
<trkpt lat="31.6545700" lon="34.9676900">
<ele>342.000000</ele>
<time>2022-05-18T01:25:44.000Z</time>
</trkpt>
<trkpt lat="31.6548700" lon="34.9671400">
<ele>341.000000</ele>
<time>2022-05-18T01:25:55.000Z</time>
</trkpt>
<trkpt lat="31.6550200" lon="34.9668200">
<ele>337.999969</ele>
<time>2022-05-18T01:26:01.000Z</time>
</trkpt>
<trkpt lat="31.6554800" lon="34.9657700">
<ele>340.000000</ele>
<time>2022-05-18T01:26:21.000Z</time>
</trkpt>
<trkpt lat="31.6558100" lon="34.9649700">
<ele>333.000000</ele>
<time>2022-05-18T01:26:36.000Z</time>
</trkpt>
<trkpt lat="31.6560200" lon="34.9645800">
<ele>333.000000</ele>
<time>2022-05-18T01:26:44.000Z</time>
</trkpt>
<trkpt lat="31.6563700" lon="34.9641000">
<ele>332.000000</ele>
<time>2022-05-18T01:26:55.000Z</time>
</trkpt>
<trkpt lat="31.6564300" lon="34.9639900">
<ele>332.000000</ele>
<time>2022-05-18T01:26:57.000Z</time>
</trkpt>
<trkpt lat="31.6565300" lon="34.9637400">
<ele>331.000000</ele>
<time>2022-05-18T01:27:02.000Z</time>
</trkpt>
<trkpt lat="31.6570000" lon="34.9623700">
<ele>330.000000</ele>
<time>2022-05-18T01:27:27.000Z</time>
</trkpt>
<trkpt lat="31.6570700" lon="34.9619500">
<ele>329.000000</ele>
<time>2022-05-18T01:27:35.000Z</time>
</trkpt>
<trkpt lat="31.6571500" lon="34.9615200">
<ele>328.000000</ele>
<time>2022-05-18T01:27:42.000Z</time>
</trkpt>
<trkpt lat="31.6572300" lon="34.9611800">
<ele>326.000000</ele>
<time>2022-05-18T01:27:48.000Z</time>
</trkpt>
<trkpt lat="31.6574000" lon="34.9606400">
<ele>323.999969</ele>
<time>2022-05-18T01:27:58.000Z</time>
</trkpt>
<trkpt lat="31.6575000" lon="34.9603500">
<ele>323.000000</ele>
<time>2022-05-18T01:28:03.000Z</time>
</trkpt>
<trkpt lat="31.6577300" lon="34.9599500">
<ele>323.000000</ele>
<time>2022-05-18T01:28:11.000Z</time>
</trkpt>
<trkpt lat="31.6578900" lon="34.9597700">
<ele>323.000000</ele>
<time>2022-05-18T01:28:16.000Z</time>
</trkpt>
<trkpt lat="31.6580100" lon="34.9596700">
<ele>323.000000</ele>
<time>2022-05-18T01:28:19.000Z</time>
</trkpt>
<trkpt lat="31.6581500" lon="34.9595900">
<ele>322.000000</ele>
<time>2022-05-18T01:28:22.000Z</time>
</trkpt>
<trkpt lat="31.6584100" lon="34.9594800">
<ele>322.000000</ele>
<time>2022-05-18T01:28:27.000Z</time>
</trkpt>
<trkpt lat="31.6589900" lon="34.9592800">
<ele>323.000000</ele>
<time>2022-05-18T01:28:40.000Z</time>
</trkpt>
<trkpt lat="31.6593600" lon="34.9591400">
<ele>323.000000</ele>
<time>2022-05-18T01:28:47.000Z</time>
</trkpt>
<trkpt lat="31.6594400" lon="34.9590900">
<ele>323.000000</ele>
<time>2022-05-18T01:28:49.000Z</time>
</trkpt>
<trkpt lat="31.6595200" lon="34.9590100">
<ele>323.000000</ele>
<time>2022-05-18T01:28:51.000Z</time>
</trkpt>
<trkpt lat="31.6595800" lon="34.9589200">
<ele>323.000000</ele>
<time>2022-05-18T01:28:53.000Z</time>
</trkpt>
<trkpt lat="31.6596000" lon="34.9588500">
<ele>323.000000</ele>
<time>2022-05-18T01:28:55.000Z</time>
</trkpt>
<trkpt lat="31.6596100" lon="34.9587700">
<ele>323.000000</ele>
<time>2022-05-18T01:28:56.000Z</time>
</trkpt>
<trkpt lat="31.6596000" lon="34.9586600">
<ele>323.000000</ele>
<time>2022-05-18T01:28:58.000Z</time>
</trkpt>
<trkpt lat="31.6595600" lon="34.9585900">
<ele>323.000000</ele>
<time>2022-05-18T01:28:59.000Z</time>
</trkpt>
<trkpt lat="31.6593200" lon="34.9583200">
<ele>321.000031</ele>
<time>2022-05-18T01:29:06.000Z</time>
</trkpt>
<trkpt lat="31.6588000" lon="34.9578200">
<ele>319.000000</ele>
<time>2022-05-18T01:29:19.000Z</time>
</trkpt>
<trkpt lat="31.6586200" lon="34.9576000">
<ele>318.000000</ele>
<time>2022-05-18T01:29:25.000Z</time>
</trkpt>
<trkpt lat="31.6585600" lon="34.9574700">
<ele>318.000000</ele>
<time>2022-05-18T01:29:27.000Z</time>
</trkpt>
<trkpt lat="31.6584600" lon="34.9571400">
<ele>317.000000</ele>
<time>2022-05-18T01:29:33.000Z</time>
</trkpt>
<trkpt lat="31.6584200" lon="34.9568500">
<ele>316.000000</ele>
<time>2022-05-18T01:29:38.000Z</time>
</trkpt>
<trkpt lat="31.6584100" lon="34.9566600">
<ele>316.000000</ele>
<time>2022-05-18T01:29:41.000Z</time>
</trkpt>
<trkpt lat="31.6584300" lon="34.9563700">
<ele>316.000000</ele>
<time>2022-05-18T01:29:46.000Z</time>
</trkpt>
<trkpt lat="31.6585000" lon="34.9561300">
<ele>316.000000</ele>
<time>2022-05-18T01:29:51.000Z</time>
</trkpt>
<trkpt lat="31.6589700" lon="34.9551900">
<ele>315.000000</ele>
<time>2022-05-18T01:30:09.000Z</time>
</trkpt>
<trkpt lat="31.6590600" lon="34.9549700">
<ele>314.000000</ele>
<time>2022-05-18T01:30:13.000Z</time>
</trkpt>
<trkpt lat="31.6591000" lon="34.9548000">
<ele>312.999969</ele>
<time>2022-05-18T01:30:16.000Z</time>
</trkpt>
<trkpt lat="31.6591200" lon="34.9544300">
<ele>312.000000</ele>
<time>2022-05-18T01:30:23.000Z</time>
</trkpt>
<trkpt lat="31.6591200" lon="34.9537800">
<ele>310.000000</ele>
<time>2022-05-18T01:30:34.000Z</time>
</trkpt>
<trkpt lat="31.6591600" lon="34.9533900">
<ele>309.000000</ele>
<time>2022-05-18T01:30:40.000Z</time>
</trkpt>
<trkpt lat="31.6592800" lon="34.9527300">
<ele>308.000000</ele>
<time>2022-05-18T01:30:52.000Z</time>
</trkpt>
<trkpt lat="31.6594600" lon="34.9520900">
<ele>308.000000</ele>
<time>2022-05-18T01:31:03.000Z</time>
</trkpt>
<trkpt lat="31.6595700" lon="34.9516000">
<ele>306.000000</ele>
<time>2022-05-18T01:31:12.000Z</time>
</trkpt>
<trkpt lat="31.6596200" lon="34.9514700">
<ele>306.000000</ele>
<time>2022-05-18T01:31:15.000Z</time>
</trkpt>
<trkpt lat="31.6596800" lon="34.9513600">
<ele>305.000000</ele>
<time>2022-05-18T01:31:17.000Z</time>
</trkpt>
<trkpt lat="31.6600600" lon="34.9508300">
<ele>301.000000</ele>
<time>2022-05-18T01:31:29.000Z</time>
</trkpt>
<trkpt lat="31.6601200" lon="34.9507700">
<ele>301.000000</ele>
<time>2022-05-18T01:31:30.000Z</time>
</trkpt>
<trkpt lat="31.6602100" lon="34.9507100">
<ele>301.000000</ele>
<time>2022-05-18T01:31:32.000Z</time>
</trkpt>
<trkpt lat="31.6604100" lon="34.9506500">
<ele>301.000000</ele>
<time>2022-05-18T01:31:36.000Z</time>
</trkpt>
<trkpt lat="31.6605200" lon="34.9506400">
<ele>301.000000</ele>
<time>2022-05-18T01:31:39.000Z</time>
</trkpt>
<trkpt lat="31.6606800" lon="34.9506700">
<ele>301.000000</ele>
<time>2022-05-18T01:31:42.000Z</time>
</trkpt>
<trkpt lat="31.6610700" lon="34.9508300">
<ele>303.000000</ele>
<time>2022-05-18T01:31:50.000Z</time>
</trkpt>
<trkpt lat="31.6612300" lon="34.9508700">
<ele>303.000000</ele>
<time>2022-05-18T01:31:53.000Z</time>
</trkpt>
<trkpt lat="31.6613600" lon="34.9508600">
<ele>303.000000</ele>
<time>2022-05-18T01:31:56.000Z</time>
</trkpt>
<trkpt lat="31.6617300" lon="34.9506600">
<ele>304.000000</ele>
<time>2022-05-18T01:32:04.000Z</time>
</trkpt>
<trkpt lat="31.6619200" lon="34.9505100">
<ele>306.000000</ele>
<time>2022-05-18T01:32:09.000Z</time>
</trkpt>
<trkpt lat="31.6620900" lon="34.9502800">
<ele>306.000000</ele>
<time>2022-05-18T01:32:14.000Z</time>
</trkpt>
<trkpt lat="31.6621500" lon="34.9501400">
<ele>306.000000</ele>
<time>2022-05-18T01:32:17.000Z</time>
</trkpt>
<trkpt lat="31.6621900" lon="34.9499800">
<ele>305.000000</ele>
<time>2022-05-18T01:32:19.000Z</time>
</trkpt>
<trkpt lat="31.6623600" lon="34.9486200">
<ele>296.000000</ele>
<time>2022-05-18T01:32:43.000Z</time>
</trkpt>
<trkpt lat="31.6625000" lon="34.9482900">
<ele>294.000000</ele>
<time>2022-05-18T01:32:49.000Z</time>
</trkpt>
<trkpt lat="31.6627200" lon="34.9479100">
<ele>293.000000</ele>
<time>2022-05-18T01:32:57.000Z</time>
</trkpt>
<trkpt lat="31.6628700" lon="34.9477400">
<ele>292.000000</ele>
<time>2022-05-18T01:33:01.000Z</time>
</trkpt>
<trkpt lat="31.6632700" lon="34.9474100">
<ele>290.000000</ele>
<time>2022-05-18T01:33:11.000Z</time>
</trkpt>
<trkpt lat="31.6634200" lon="34.9473700">
<ele>290.000000</ele>
<time>2022-05-18T01:33:14.000Z</time>
</trkpt>
<trkpt lat="31.6638900" lon="34.9473300">
<ele>293.000000</ele>
<time>2022-05-18T01:33:24.000Z</time>
</trkpt>
<trkpt lat="31.6639800" lon="34.9472800">
<ele>293.000000</ele>
<time>2022-05-18T01:33:26.000Z</time>
</trkpt>
<trkpt lat="31.6640400" lon="34.9471800">
<ele>292.000000</ele>
<time>2022-05-18T01:33:28.000Z</time>
</trkpt>
<trkpt lat="31.6642300" lon="34.9464300">
<ele>288.000000</ele>
<time>2022-05-18T01:33:41.000Z</time>
</trkpt>
<trkpt lat="31.6643100" lon="34.9462900">
<ele>288.000000</ele>
<time>2022-05-18T01:33:44.000Z</time>
</trkpt>
<trkpt lat="31.6644500" lon="34.9461600">
<ele>288.000000</ele>
<time>2022-05-18T01:33:47.000Z</time>
</trkpt>
<trkpt lat="31.6648800" lon="34.9459500">
<ele>287.000000</ele>
<time>2022-05-18T01:33:57.000Z</time>
</trkpt>
<trkpt lat="31.6654100" lon="34.9459300">
<ele>286.000000</ele>
<time>2022-05-18T01:34:07.000Z</time>
</trkpt>
<trkpt lat="31.6658700" lon="34.9458500">
<ele>284.000000</ele>
<time>2022-05-18T01:34:17.000Z</time>
</trkpt>
<trkpt lat="31.6663600" lon="34.9456900">
<ele>284.000000</ele>
<time>2022-05-18T01:34:27.000Z</time>
</trkpt>
<trkpt lat="31.6674400" lon="34.9454800">
<ele>284.000000</ele>
<time>2022-05-18T01:34:49.000Z</time>
</trkpt>
<trkpt lat="31.6677600" lon="34.9455600">
<ele>284.000000</ele>
<time>2022-05-18T01:34:55.000Z</time>
</trkpt>
<trkpt lat="31.6677600" lon="34.9455500">
<ele>284.000000</ele>
<time>2022-05-18T01:34:56.000Z</time>
</trkpt>
<trkpt lat="31.6679500" lon="34.9456000">
<ele>284.000000</ele>
<time>2022-05-18T01:34:59.000Z</time>
</trkpt>
<trkpt lat="31.6681400" lon="34.9456200">
<ele>284.000000</ele>
<time>2022-05-18T01:35:03.000Z</time>
</trkpt>
<trkpt lat="31.6682600" lon="34.9456800">
<ele>284.000000</ele>
<time>2022-05-18T01:35:06.000Z</time>
</trkpt>
<trkpt lat="31.6683900" lon="34.9458800">
<ele>285.000000</ele>
<time>2022-05-18T01:35:10.000Z</time>
</trkpt>
<trkpt lat="31.6688000" lon="34.9451700">
<ele>285.000000</ele>
<time>2022-05-18T01:35:25.000Z</time>
</trkpt>
<trkpt lat="31.6700900" lon="34.9432100">
<ele>278.000000</ele>
<time>2022-05-18T01:36:07.000Z</time>
</trkpt>
<trkpt lat="31.6693000" lon="34.9428100">
<ele>276.000000</ele>
<time>2022-05-18T01:36:24.000Z</time>
</trkpt>
<trkpt lat="31.6691300" lon="34.9425100">
<ele>275.000000</ele>
<time>2022-05-18T01:36:30.000Z</time>
</trkpt>
<trkpt lat="31.6692400" lon="34.9423600">
<ele>275.000000</ele>
<time>2022-05-18T01:36:34.000Z</time>
</trkpt>
<trkpt lat="31.6691700" lon="34.9422200">
<ele>276.000000</ele>
<time>2022-05-18T01:36:37.000Z</time>
</trkpt>
<trkpt lat="31.6689100" lon="34.9419000">
<ele>279.000000</ele>
<time>2022-05-18T01:36:44.000Z</time>
</trkpt>
<trkpt lat="31.6684300" lon="34.9414100">
<ele>284.000000</ele>
<time>2022-05-18T01:36:57.000Z</time>
</trkpt>
<trkpt lat="31.6684300" lon="34.9414000">
<ele>284.000000</ele>
<time>2022-05-18T01:36:57.000Z</time>
</trkpt>
<trkpt lat="31.6676200" lon="34.9405700">
<ele>294.000000</ele>
<time>2022-05-18T01:37:19.000Z</time>
</trkpt>
<trkpt lat="31.6674500" lon="34.9405100">
<ele>295.000000</ele>
<time>2022-05-18T01:37:22.000Z</time>
</trkpt>
<trkpt lat="31.6673200" lon="34.9404900">
<ele>297.000000</ele>
<time>2022-05-18T01:37:25.000Z</time>
</trkpt>
<trkpt lat="31.6664700" lon="34.9404800">
<ele>306.000000</ele>
<time>2022-05-18T01:37:42.000Z</time>
</trkpt>
<trkpt lat="31.6663200" lon="34.9404700">
<ele>307.000000</ele>
<time>2022-05-18T01:37:45.000Z</time>
</trkpt>
<trkpt lat="31.6658000" lon="34.9403800">
<ele>311.000000</ele>
<time>2022-05-18T01:37:55.000Z</time>
</trkpt>
<trkpt lat="31.6657300" lon="34.9403400">
<ele>312.000000</ele>
<time>2022-05-18T01:37:57.000Z</time>
</trkpt>
<trkpt lat="31.6656900" lon="34.9402600">
<ele>312.999969</ele>
<time>2022-05-18T01:37:58.000Z</time>
</trkpt>
<trkpt lat="31.6657400" lon="34.9401700">
<ele>312.999969</ele>
<time>2022-05-18T01:38:00.000Z</time>
</trkpt>
<trkpt lat="31.6665200" lon="34.9399700">
<ele>310.000000</ele>
<time>2022-05-18T01:38:16.000Z</time>
</trkpt>
<trkpt lat="31.6667600" lon="34.9398900">
<ele>310.000000</ele>
<time>2022-05-18T01:38:21.000Z</time>
</trkpt>
<trkpt lat="31.6669400" lon="34.9397800">
<ele>309.000000</ele>
<time>2022-05-18T01:38:25.000Z</time>
</trkpt>
<trkpt lat="31.6670300" lon="34.9396900">
<ele>309.000000</ele>
<time>2022-05-18T01:38:28.000Z</time>
</trkpt>
<trkpt lat="31.6673900" lon="34.9392600">
<ele>310.000000</ele>
<time>2022-05-18T01:38:38.000Z</time>
</trkpt>
<trkpt lat="31.6674800" lon="34.9391200">
<ele>310.000000</ele>
<time>2022-05-18T01:38:41.000Z</time>
</trkpt>
<trkpt lat="31.6676400" lon="34.9387800">
<ele>314.000000</ele>
<time>2022-05-18T01:38:48.000Z</time>
</trkpt>
<trkpt lat="31.6676800" lon="34.9387200">
<ele>314.000000</ele>
<time>2022-05-18T01:38:49.000Z</time>
</trkpt>
<trkpt lat="31.6677400" lon="34.9386800">
<ele>315.000000</ele>
<time>2022-05-18T01:38:50.000Z</time>
</trkpt>
<trkpt lat="31.6678300" lon="34.9386800">
<ele>315.000000</ele>
<time>2022-05-18T01:38:52.000Z</time>
</trkpt>
<trkpt lat="31.6679200" lon="34.9387900">
<ele>314.000000</ele>
<time>2022-05-18T01:38:55.000Z</time>
</trkpt>
<trkpt lat="31.6681500" lon="34.9391900">
<ele>309.000000</ele>
<time>2022-05-18T01:39:03.000Z</time>
</trkpt>
<trkpt lat="31.6683400" lon="34.9394400">
<ele>306.000000</ele>
<time>2022-05-18T01:39:09.000Z</time>
</trkpt>
<trkpt lat="31.6684300" lon="34.9395300">
<ele>304.000000</ele>
<time>2022-05-18T01:39:11.000Z</time>
</trkpt>
<trkpt lat="31.6686300" lon="34.9396600">
<ele>303.000000</ele>
<time>2022-05-18T01:39:16.000Z</time>
</trkpt>
<trkpt lat="31.6688100" lon="34.9397000">
<ele>303.000000</ele>
<time>2022-05-18T01:39:19.000Z</time>
</trkpt>
<trkpt lat="31.6690400" lon="34.9396900">
<ele>303.000000</ele>
<time>2022-05-18T01:39:24.000Z</time>
</trkpt>
<trkpt lat="31.6691100" lon="34.9396600">
<ele>304.000000</ele>
<time>2022-05-18T01:39:25.000Z</time>
</trkpt>
<trkpt lat="31.6692500" lon="34.9395600">
<ele>304.000000</ele>
<time>2022-05-18T01:39:29.000Z</time>
</trkpt>
<trkpt lat="31.6694200" lon="34.9393800">
<ele>305.000000</ele>
<time>2022-05-18T01:39:33.000Z</time>
</trkpt>
<trkpt lat="31.6695000" lon="34.9392500">
<ele>305.000000</ele>
<time>2022-05-18T01:39:36.000Z</time>
</trkpt>
<trkpt lat="31.6695800" lon="34.9390300">
<ele>306.000000</ele>
<time>2022-05-18T01:39:40.000Z</time>
</trkpt>
<trkpt lat="31.6696700" lon="34.9385900">
<ele>306.000000</ele>
<time>2022-05-18T01:39:48.000Z</time>
</trkpt>
<trkpt lat="31.6697000" lon="34.9381000">
<ele>307.000000</ele>
<time>2022-05-18T01:39:56.000Z</time>
</trkpt>
<trkpt lat="31.6697000" lon="34.9378300">
<ele>308.000000</ele>
<time>2022-05-18T01:40:01.000Z</time>
</trkpt>
<trkpt lat="31.6696800" lon="34.9376900">
<ele>309.000000</ele>
<time>2022-05-18T01:40:03.000Z</time>
</trkpt>
<trkpt lat="31.6695700" lon="34.9372900">
<ele>310.000000</ele>
<time>2022-05-18T01:40:10.000Z</time>
</trkpt>
<trkpt lat="31.6691600" lon="34.9362200">
<ele>311.000000</ele>
<time>2022-05-18T01:40:30.000Z</time>
</trkpt>
<trkpt lat="31.6689100" lon="34.9357900">
<ele>312.000000</ele>
<time>2022-05-18T01:40:39.000Z</time>
</trkpt>
<trkpt lat="31.6687000" lon="34.9355100">
<ele>310.000000</ele>
<time>2022-05-18T01:40:46.000Z</time>
</trkpt>
<trkpt lat="31.6685700" lon="34.9353900">
<ele>311.000000</ele>
<time>2022-05-18T01:40:49.000Z</time>
</trkpt>
<trkpt lat="31.6680100" lon="34.9349800">
<ele>311.000000</ele>
<time>2022-05-18T01:41:02.000Z</time>
</trkpt>
<trkpt lat="31.6678500" lon="34.9349000">
<ele>311.000000</ele>
<time>2022-05-18T01:41:06.000Z</time>
</trkpt>
<trkpt lat="31.6678500" lon="34.9348900">
<ele>311.000000</ele>
<time>2022-05-18T01:41:06.000Z</time>
</trkpt>
<trkpt lat="31.6676700" lon="34.9348000">
<ele>311.000000</ele>
<time>2022-05-18T01:41:10.000Z</time>
</trkpt>
<trkpt lat="31.6675800" lon="34.9347700">
<ele>311.000000</ele>
<time>2022-05-18T01:41:12.000Z</time>
</trkpt>
<trkpt lat="31.6673700" lon="34.9347800">
<ele>312.000000</ele>
<time>2022-05-18T01:41:16.000Z</time>
</trkpt>
<trkpt lat="31.6672200" lon="34.9348300">
<ele>312.000000</ele>
<time>2022-05-18T01:41:19.000Z</time>
</trkpt>
<trkpt lat="31.6667000" lon="34.9350700">
<ele>312.999969</ele>
<time>2022-05-18T01:41:30.000Z</time>
</trkpt>
<trkpt lat="31.6662700" lon="34.9353100">
<ele>312.000000</ele>
<time>2022-05-18T01:41:40.000Z</time>
</trkpt>
<trkpt lat="31.6662800" lon="34.9353100">
<ele>312.000000</ele>
<time>2022-05-18T01:41:40.000Z</time>
</trkpt>
<trkpt lat="31.6662400" lon="34.9353400">
<ele>312.000000</ele>
<time>2022-05-18T01:41:41.000Z</time>
</trkpt>
<trkpt lat="31.6660400" lon="34.9353900">
<ele>311.000000</ele>
<time>2022-05-18T01:41:45.000Z</time>
</trkpt>
<trkpt lat="31.6659600" lon="34.9354500">
<ele>310.000000</ele>
<time>2022-05-18T01:41:47.000Z</time>
</trkpt>
<trkpt lat="31.6660700" lon="34.9354800">
<ele>311.000000</ele>
<time>2022-05-18T01:41:49.000Z</time>
</trkpt>
<trkpt lat="31.6661500" lon="34.9356800">
<ele>312.000000</ele>
<time>2022-05-18T01:41:53.000Z</time>
</trkpt>
<trkpt lat="31.6662400" lon="34.9358700">
<ele>312.999969</ele>
<time>2022-05-18T01:41:57.000Z</time>
</trkpt>
<trkpt lat="31.6665700" lon="34.9362800">
<ele>318.000000</ele>
<time>2022-05-18T01:42:06.000Z</time>
</trkpt>
<trkpt lat="31.6667100" lon="34.9366900">
<ele>321.000031</ele>
<time>2022-05-18T01:42:14.000Z</time>
</trkpt>
<trkpt lat="31.6666600" lon="34.9369300">
<ele>322.000000</ele>
<time>2022-05-18T01:42:18.000Z</time>
</trkpt>
<trkpt lat="31.6665000" lon="34.9370900">
<ele>321.000031</ele>
<time>2022-05-18T01:42:22.000Z</time>
</trkpt>
<trkpt lat="31.6662100" lon="34.9372600">
<ele>319.000000</ele>
<time>2022-05-18T01:42:29.000Z</time>
</trkpt>
<trkpt lat="31.6659900" lon="34.9374500">
<ele>320.000000</ele>
<time>2022-05-18T01:42:34.000Z</time>
</trkpt>
<trkpt lat="31.6654100" lon="34.9379900">
<ele>321.000031</ele>
<time>2022-05-18T01:42:49.000Z</time>
</trkpt>
<trkpt lat="31.6650900" lon="34.9383000">
<ele>321.000031</ele>
<time>2022-05-18T01:42:57.000Z</time>
</trkpt>
<trkpt lat="31.6649200" lon="34.9384600">
<ele>321.000031</ele>
<time>2022-05-18T01:43:02.000Z</time>
</trkpt>
<trkpt lat="31.6646800" lon="34.9384500">
<ele>320.000000</ele>
<time>2022-05-18T01:43:06.000Z</time>
</trkpt>
<trkpt lat="31.6644400" lon="34.9385600">
<ele>320.000000</ele>
<time>2022-05-18T01:43:12.000Z</time>
</trkpt>
<trkpt lat="31.6641700" lon="34.9386300">
<ele>320.000000</ele>
<time>2022-05-18T01:43:17.000Z</time>
</trkpt>
<trkpt lat="31.6639300" lon="34.9383600">
<ele>318.000000</ele>
<time>2022-05-18T01:43:24.000Z</time>
</trkpt>
<trkpt lat="31.6637500" lon="34.9379000">
<ele>311.000000</ele>
<time>2022-05-18T01:43:32.000Z</time>
</trkpt>
<trkpt lat="31.6634500" lon="34.9372000">
<ele>302.000000</ele>
<time>2022-05-18T01:43:46.000Z</time>
</trkpt>
<trkpt lat="31.6632900" lon="34.9367900">
<ele>296.000000</ele>
<time>2022-05-18T01:43:53.000Z</time>
</trkpt>
</trkseg>
</trk>
</gpx>
